Wetterdaten: Freitag, 05.04.2013
Datum Zeit Temp. Aussen +5cm Feuchte Auss Luftdruck Regen Sonnenschein Regendauer UV Solar Windben
05.04.2013 00:00 2,9 C 1,2 C 76 % 1009,7 hPa 0,0 l/m 0 min 0 min 0,0 UV-I 0 W/m 0,0 km/h (0 Bft)
05.04.2013 00:02 2,9 C 1,2 C 77 % 1009,8 hPa 0,0 l/m 0 min 0 min 0,0 UV-I 0 W/m 0,0 km/h (0 Bft)
05.04.2013 00:06 2,8 C 1,2 C 77 % 1009,8 hPa 0,0 l/m 0 min 0 min 0,0 UV-I 0 W/m 0,0 km/h (0 Bft)
05.04.2013 00:08 2,8 C 1,2 C 77 % 1009,7 hPa 0,0 l/m 0 min 0 min 0,0 UV-I 0 W/m 2,6 km/h (1 Bft)
05.04.2013 00:10 2,8 C 0,7 C 77 % 1009,8 hPa 0,0 l/m 0 min 0 min 0,0 UV-I 0 W/m 0,0 km/h (0 Bft)
05.04.2013 00:12 2,7 C 0,7 C 77 % 1009,7 hPa 0,0 l/m 0 min 0 min 0,0 UV-I 0 W/m 0,0 km/h (0 Bft)
05.04.2013 00:14 2,7 C 0,7 C 77 % 1009,8 hPa 0,0 l/m 0 min 0 min 0,0 UV-I 0 W/m 0,0 km/h (0 Bft)
05.04.2013 00:16 2,7 C 0,7 C 77 % 1009,7 hPa 0,0 l/m 0 min 0 min 0,0 UV-I 0 W/m 0,0 km/h (0 Bft)
05.04.2013 00:18 2,6 C 0,7 C 78 % 1009,8 hPa 0,0 l/m 0 min 0 min 0,0 UV-I 0 W/m 2,6 km/h (1 Bft)
05.04.2013 00:20 2,6 C 0,7 C 78 % 1009,8 hPa 0,0 l/m 0 min 0 min 0,0 UV-I 0 W/m 5,1 km/h (1 Bft)
05.04.2013 00:22 2,6 C 0,7 C 78 % 1009,8 hPa 0,0 l/m 0 min 0 min 0,0 UV-I 0 W/m 0,0 km/h (0 Bft)
05.04.2013 00:24 2,5 C 0,7 C 78 % 1009,8 hPa 0,0 l/m 0 min 0 min 0,0 UV-I 0 W/m 0,0 km/h (0 Bft)
05.04.2013 00:26 2,5 C 0,7 C 78 % 1009,8 hPa 0,0 l/m 0 min 0 min 0,0 UV-I 0 W/m 0,0 km/h (0 Bft)
05.04.2013 00:28 2,4 C 0,7 C 78 % 1009,8 hPa 0,0 l/m 0 min 0 min 0,0 UV-I 0 W/m 0,0 km/h (0 Bft)
05.04.2013 00:30 2,4 C 0,7 C 78 % 1009,8 hPa 0,0 l/m 0 min 0 min 0,0 UV-I 0 W/m 0,0 km/h (0 Bft)
05.04.2013 00:32 2,4 C 0,7 C 78 % 1009,8 hPa 0,0 l/m 0 min 0 min 0,0 UV-I 0 W/m 0,0 km/h (0 Bft)
05.04.2013 00:34 2,3 C 0,7 C 79 % 1009,9 hPa 0,0 l/m 0 min 0 min 0,0 UV-I 0 W/m 0,0 km/h (0 Bft)
05.04.2013 00:36 2,3 C 0,7 C 79 % 1009,9 hPa 0,0 l/m 0 min 0 min 0,0 UV-I 0 W/m 0,0 km/h (0 Bft)
05.04.2013 00:38 2,3 C 0,7 C 79 % 1009,9 hPa 0,0 l/m 0 min 0 min 0,0 UV-I 0 W/m 0,0 km/h (0 Bft)
05.04.2013 00:40 2,3 C 0,7 C 79 % 1009,8 hPa 0,0 l/m 0 min 0 min 0,0 UV-I 0 W/m 0,0 km/h (0 Bft)
05.04.2013 00:42 2,3 C 0,7 C 79 % 1009,8 hPa 0,0 l/m 0 min 0 min 0,0 UV-I 0 W/m 0,0 km/h (0 Bft)
05.04.2013 00:44 2,2 C 0,7 C 79 % 1009,8 hPa 0,0 l/m 0 min 0 min 0,0 UV-I 0 W/m 0,0 km/h (0 Bft)
05.04.2013 00:46 2,2 C 0,1 C 79 % 1009,8 hPa 0,0 l/m 0 min 0 min 0,0 UV-I 0 W/m 0,0 km/h (0 Bft)
05.04.2013 00:48 2,2 C 0,1 C 79 % 1009,7 hPa 0,0 l/m 0 min 0 min 0,0 UV-I 0 W/m 0,0 km/h (0 Bft)
05.04.2013 00:50 2,2 C 0,1 C 79 % 1009,8 hPa 0,0 l/m 0 min 0 min 0,0 UV-I 0 W/m 0,0 km/h (0 Bft)
05.04.2013 00:52 2,1 C 0,1 C 79 % 1009,8 hPa 0,0 l/m 0 min 0 min 0,0 UV-I 0 W/m 0,0 km/h (0 Bft)
05.04.2013 00:54 2,1 C 0,1 C 79 % 1009,8 hPa 0,0 l/m 0 min 0 min 0,0 UV-I 0 W/m 0,0 km/h (0 Bft)
05.04.2013 00:56 2,1 C 0,1 C 79 % 1009,7 hPa 0,0 l/m 0 min 0 min 0,0 UV-I 0 W/m 0,0 km/h (0 Bft)
05.04.2013 00:58 2,1 C 0,1 C 79 % 1009,7 hPa 0,0 l/m 0 min 0 min 0,0 UV-I 0 W/m 0,0 km/h (0 Bft)
05.04.2013 01:00 2,0 C 0,1 C 80 % 1009,7 hPa 0,0 l/m 0 min 0 min 0,0 UV-I 0 W/m 0,0 km/h (0 Bft)
05.04.2013 01:02 2,0 C 0,1 C 80 % 1009,7 hPa 0,0 l/m 0 min 0 min 0,0 UV-I 0 W/m 0,0 km/h (0 Bft)
05.04.2013 01:04 1,9 C 0,1 C 80 % 1009,6 hPa 0,0 l/m 0 min 0 min 0,0 UV-I 0 W/m 0,0 km/h (0 Bft)
05.04.2013 01:06 1,9 C 0,1 C 80 % 1009,7 hPa 0,0 l/m 0 min 0 min 0,0 UV-I 0 W/m 0,0 km/h (0 Bft)
05.04.2013 01:08 1,9 C 0,1 C 80 % 1009,7 hPa 0,0 l/m 0 min 0 min 0,0 UV-I 0 W/m 0,0 km/h (0 Bft)
05.04.2013 01:10 1,8 C 0,1 C 80 % 1009,7 hPa 0,0 l/m 0 min 0 min 0,0 UV-I 0 W/m 0,0 km/h (0 Bft)
05.04.2013 01:12 1,8 C 0,1 C 80 % 1009,7 hPa 0,0 l/m 0 min 0 min 0,0 UV-I 0 W/m 0,0 km/h (0 Bft)
05.04.2013 01:14 1,8 C 0,1 C 81 % 1009,7 hPa 0,0 l/m 0 min 0 min 0,0 UV-I 0 W/m 0,0 km/h (0 Bft)
05.04.2013 01:16 1,8 C 0,1 C 81 % 1009,7 hPa 0,0 l/m 0 min 0 min 0,0 UV-I 0 W/m 2,6 km/h (1 Bft)
05.04.2013 01:18 1,8 C 0,1 C 81 % 1009,7 hPa 0,0 l/m 0 min 0 min 0,0 UV-I 0 W/m 0,0 km/h (0 Bft)
05.04.2013 01:20 1,8 C 0,1 C 81 % 1009,7 hPa 0,0 l/m 0 min 0 min 0,0 UV-I 0 W/m 0,0 km/h (0 Bft)
05.04.2013 01:22 1,7 C 0,1 C 81 % 1009,7 hPa 0,0 l/m 0 min 0 min 0,0 UV-I 0 W/m 0,0 km/h (0 Bft)
05.04.2013 01:24 1,7 C 0,1 C 81 % 1009,8 hPa 0,0 l/m 0 min 0 min 0,0 UV-I 0 W/m 0,0 km/h (0 Bft)
05.04.2013 01:26 1,7 C 0,1 C 81 % 1009,7 hPa 0,0 l/m 0 min 0 min 0,0 UV-I 0 W/m 0,0 km/h (0 Bft)
05.04.2013 01:28 1,7 C 0,1 C 81 % 1009,7 hPa 0,0 l/m 0 min 0 min 0,0 UV-I 0 W/m 0,0 km/h (0 Bft)
05.04.2013 01:30 1,7 C 0,1 C 81 % 1009,8 hPa 0,0 l/m 0 min 0 min 0,0 UV-I 0 W/m 0,0 km/h (0 Bft)
05.04.2013 01:32 1,6 C 0,1 C 81 % 1009,8 hPa 0,0 l/m 0 min 0 min 0,0 UV-I 0 W/m 0,0 km/h (0 Bft)
05.04.2013 01:34 1,6 C 0,1 C 81 % 1009,7 hPa 0,0 l/m 0 min 0 min 0,0 UV-I 0 W/m 0,0 km/h (0 Bft)
05.04.2013 01:36 1,6 C 0,1 C 81 % 1009,8 hPa 0,0 l/m 0 min 0 min 0,0 UV-I 0 W/m 0,0 km/h (0 Bft)
05.04.2013 01:38 1,6 C -0,4 C 81 % 1009,8 hPa 0,0 l/m 0 min 0 min 0,0 UV-I 0 W/m 0,0 km/h (0 Bft)
05.04.2013 01:40 1,6 C 0,1 C 81 % 1009,7 hPa 0,0 l/m 0 min 0 min 0,0 UV-I 0 W/m 0,0 km/h (0 Bft)
05.04.2013 01:42 1,5 C -0,4 C 81 % 1009,7 hPa 0,0 l/m 0 min 0 min 0,0 UV-I 0 W/m 0,0 km/h (0 Bft)
05.04.2013 01:44 1,5 C -0,4 C 81 % 1009,7 hPa 0,0 l/m 0 min 0 min 0,0 UV-I 0 W/m 0,0 km/h (0 Bft)
05.04.2013 01:46 1,4 C -0,4 C 81 % 1009,7 hPa 0,0 l/m 0 min 0 min 0,0 UV-I 0 W/m 0,0 km/h (0 Bft)
05.04.2013 01:48 1,4 C -0,4 C 81 % 1009,8 hPa 0,0 l/m 0 min 0 min 0,0 UV-I 0 W/m 0,0 km/h (0 Bft)
05.04.2013 01:50 1,4 C -0,4 C 81 % 1009,7 hPa 0,0 l/m 0 min 0 min 0,0 UV-I 0 W/m 0,0 km/h (0 Bft)
05.04.2013 01:52 1,3 C -0,4 C 81 % 1009,7 hPa 0,0 l/m 0 min 0 min 0,0 UV-I 0 W/m 0,0 km/h (0 Bft)
05.04.2013 01:54 1,3 C -0,4 C 82 % 1009,6 hPa 0,0 l/m 0 min 0 min 0,0 UV-I 0 W/m 0,0 km/h (0 Bft)
05.04.2013 01:56 1,3 C -1,0 C 82 % 1009,7 hPa 0,0 l/m 0 min 0 min 0,0 UV-I 0 W/m 0,0 km/h (0 Bft)
05.04.2013 01:58 1,3 C -1,0 C 82 % 1009,6 hPa 0,0 l/m 0 min 0 min 0,0 UV-I 0 W/m 0,0 km/h (0 Bft)
05.04.2013 02:00 1,3 C -1,0 C 82 % 1009,6 hPa 0,0 l/m 0 min 0 min 0,0 UV-I 0 W/m 0,0 km/h (0 Bft)
05.04.2013 02:02 1,3 C -1,0 C 82 % 1009,5 hPa 0,0 l/m 0 min 0 min 0,0 UV-I 0 W/m 0,0 km/h (0 Bft)
05.04.2013 02:04 1,3 C -1,0 C 82 % 1009,6 hPa 0,0 l/m 0 min 0 min 0,0 UV-I 0 W/m 0,0 km/h (0 Bft)
05.04.2013 02:06 1,2 C -1,0 C 82 % 1009,5 hPa 0,0 l/m 0 min 0 min 0,0 UV-I 0 W/m 0,0 km/h (0 Bft)
05.04.2013 02:08 1,2 C -1,0 C 82 % 1009,5 hPa 0,0 l/m 0 min 0 min 0,0 UV-I 0 W/m 0,0 km/h (0 Bft)
05.04.2013 02:10 1,1 C -1,0 C 82 % 1009,5 hPa 0,0 l/m 0 min 0 min 0,0 UV-I 0 W/m 0,0 km/h (0 Bft)
05.04.2013 02:12 1,1 C -1,0 C 82 % 1009,5 hPa 0,0 l/m 0 min 0 min 0,0 UV-I 0 W/m 2,6 km/h (1 Bft)
05.04.2013 02:14 1,1 C -1,0 C 83 % 1009,4 hPa 0,0 l/m 0 min 0 min 0,0 UV-I 0 W/m 0,0 km/h (0 Bft)
05.04.2013 02:16 1,0 C -0,4 C 83 % 1009,5 hPa 0,0 l/m 0 min 0 min 0,0 UV-I 0 W/m 2,6 km/h (1 Bft)
05.04.2013 02:18 1,0 C -0,4 C 89 % 1009,5 hPa 0,0 l/m 0 min 0 min 0,0 UV-I 0 W/m 2,6 km/h (1 Bft)
05.04.2013 02:20 0,9 C -0,4 C 83 % 1009,4 hPa 0,0 l/m 0 min 0 min 0,0 UV-I 0 W/m 0,0 km/h (0 Bft)
05.04.2013 02:22 0,9 C -1,0 C 83 % 1009,4 hPa 0,0 l/m 0 min 0 min 0,0 UV-I 0 W/m 0,0 km/h (0 Bft)
05.04.2013 02:24 0,9 C -1,0 C 83 % 1009,4 hPa 0,0 l/m 0 min 0 min 0,0 UV-I 0 W/m 0,0 km/h (0 Bft)
05.04.2013 02:26 0,9 C -0,4 C 84 % 1009,4 hPa 0,0 l/m 0 min 0 min 0,0 UV-I 0 W/m 5,1 km/h (1 Bft)
05.04.2013 02:28 0,9 C -0,4 C 84 % 1009,3 hPa 0,0 l/m 0 min 0 min 0,0 UV-I 0 W/m 7,7 km/h (2 Bft)
05.04.2013 02:30 0,9 C -0,4 C 84 % 1009,4 hPa 0,0 l/m 0 min 0 min 0,0 UV-I 0 W/m 2,6 km/h (1 Bft)
05.04.2013 02:32 0,9 C -0,4 C 84 % 1009,4 hPa 0,0 l/m 0 min 0 min 0,0 UV-I 0 W/m 2,6 km/h (1 Bft)
05.04.2013 02:34 0,9 C -0,4 C 84 % 1009,4 hPa 0,0 l/m 0 min 0 min 0,0 UV-I 0 W/m 0,0 km/h (0 Bft)
05.04.2013 02:36 0,9 C -0,4 C 84 % 1009,4 hPa 0,0 l/m 0 min 0 min 0,0 UV-I 0 W/m 0,0 km/h (0 Bft)
05.04.2013 02:38 0,9 C -0,4 C 84 % 1009,3 hPa 0,0 l/m 0 min 0 min 0,0 UV-I 0 W/m 0,0 km/h (0 Bft)
05.04.2013 02:40 0,9 C -0,4 C 84 % 1009,3 hPa 0,0 l/m 0 min 0 min 0,0 UV-I 0 W/m 2,6 km/h (1 Bft)
05.04.2013 02:42 0,9 C -0,4 C 84 % 1009,3 hPa 0,0 l/m 0 min 0 min 0,0 UV-I 0 W/m 0,0 km/h (0 Bft)
05.04.2013 02:44 0,9 C -1,0 C 84 % 1009,3 hPa 0,0 l/m 0 min 0 min 0,0 UV-I 0 W/m 0,0 km/h (0 Bft)
05.04.2013 02:46 0,9 C -1,0 C 84 % 1009,3 hPa 0,0 l/m 0 min 0 min 0,0 UV-I 0 W/m 0,0 km/h (0 Bft)
05.04.2013 02:48 0,8 C -1,0 C 84 % 1009,3 hPa 0,0 l/m 0 min 0 min 0,0 UV-I 0 W/m 0,0 km/h (0 Bft)
05.04.2013 02:50 0,8 C -1,0 C 84 % 1009,3 hPa 0,0 l/m 0 min 0 min 0,0 UV-I 0 W/m 0,0 km/h (0 Bft)
05.04.2013 02:52 0,8 C -1,0 C 84 % 1009,3 hPa 0,0 l/m 0 min 0 min 0,0 UV-I 0 W/m 5,1 km/h (1 Bft)
05.04.2013 02:54 0,8 C -0,4 C 84 % 1009,3 hPa 0,0 l/m 0 min 0 min 0,0 UV-I 0 W/m 0,0 km/h (0 Bft)
05.04.2013 02:56 0,8 C -0,4 C 84 % 1009,3 hPa 0,0 l/m 0 min 0 min 0,0 UV-I 0 W/m 0,0 km/h (0 Bft)
05.04.2013 02:58 0,8 C -0,4 C 84 % 1009,3 hPa 0,0 l/m 0 min 0 min 0,0 UV-I 0 W/m 0,0 km/h (0 Bft)
05.04.2013 03:00 0,8 C -0,4 C 84 % 1009,3 hPa 0,0 l/m 0 min 0 min 0,0 UV-I 0 W/m 0,0 km/h (0 Bft)
05.04.2013 03:02 0,8 C -0,4 C 84 % 1009,3 hPa 0,0 l/m 0 min 0 min 0,0 UV-I 0 W/m 0,0 km/h (0 Bft)
05.04.2013 03:07 0,8 C -1,0 C 84 % 1009,2 hPa 0,0 l/m 0 min 0 min 0,0 UV-I 0 W/m 0,0 km/h (0 Bft)
05.04.2013 03:10 0,7 C -1,0 C 84 % 1009,2 hPa 0,0 l/m 0 min 0 min 0,0 UV-I 0 W/m 0,0 km/h (0 Bft)
05.04.2013 03:12 0,7 C -1,0 C 84 % 1009,2 hPa 0,0 l/m 0 min 0 min 0,0 UV-I 0 W/m 0,0 km/h (0 Bft)
05.04.2013 03:14 0,7 C -1,0 C 84 % 1009,2 hPa 0,0 l/m 0 min 0 min 0,0 UV-I 0 W/m 5,1 km/h (1 Bft)
05.04.2013 03:16 0,7 C -1,0 C 84 % 1009,2 hPa 0,0 l/m 0 min 0 min 0,0 UV-I 0 W/m 0,0 km/h (0 Bft)
05.04.2013 03:18 0,7 C -1,0 C 84 % 1009,1 hPa 0,0 l/m 0 min 0 min 0,0 UV-I 0 W/m 2,6 km/h (1 Bft)
05.04.2013 03:20 0,7 C -1,0 C 84 % 1009,2 hPa 0,0 l/m 0 min 0 min 0,0 UV-I 0 W/m 0,0 km/h (0 Bft)
05.04.2013 03:22 0,7 C -1,0 C 84 % 1009,2 hPa 0,0 l/m 0 min 0 min 0,0 UV-I 0 W/m 10,3 km/h (2 Bft)
05.04.2013 03:24 0,7 C -1,0 C 84 % 1009,1 hPa 0,0 l/m 0 min 0 min 0,0 UV-I 0 W/m 0,0 km/h (0 Bft)
05.04.2013 03:26 0,7 C -1,0 C 84 % 1009,1 hPa 0,0 l/m 0 min 0 min 0,0 UV-I 0 W/m 0,0 km/h (0 Bft)
05.04.2013 03:28 0,7 C -1,0 C 84 % 1009,1 hPa 0,0 l/m 0 min 0 min 0,0 UV-I 0 W/m 5,1 km/h (1 Bft)
05.04.2013 03:30 0,6 C -1,0 C 84 % 1009,1 hPa 0,0 l/m 0 min 0 min 0,0 UV-I 0 W/m 2,6 km/h (1 Bft)
05.04.2013 03:32 0,6 C -1,0 C 84 % 1009,0 hPa 0,0 l/m 0 min 0 min 0,0 UV-I 0 W/m 5,1 km/h (1 Bft)
05.04.2013 03:34 0,6 C -1,0 C 84 % 1009,1 hPa 0,0 l/m 0 min 0 min 0,0 UV-I 0 W/m 2,6 km/h (1 Bft)
05.04.2013 03:36 0,6 C -1,0 C 84 % 1009,1 hPa 0,0 l/m 0 min 0 min 0,0 UV-I 0 W/m 2,6 km/h (1 Bft)
05.04.2013 03:38 0,6 C -1,0 C 84 % 1009,0 hPa 0,0 l/m 0 min 0 min 0,0 UV-I 0 W/m 2,6 km/h (1 Bft)
05.04.2013 03:40 0,6 C -1,0 C 84 % 1009,2 hPa 0,0 l/m 0 min 0 min 0,0 UV-I 0 W/m 0,0 km/h (0 Bft)
05.04.2013 03:42 0,6 C -1,0 C 84 % 1009,1 hPa 0,0 l/m 0 min 0 min 0,0 UV-I 0 W/m 0,0 km/h (0 Bft)
05.04.2013 03:44 0,6 C -1,0 C 84 % 1009,0 hPa 0,0 l/m 0 min 0 min 0,0 UV-I 0 W/m 2,6 km/h (1 Bft)
05.04.2013 03:46 0,6 C -1,0 C 84 % 1009,1 hPa 0,0 l/m 0 min 0 min 0,0 UV-I 0 W/m 0,0 km/h (0 Bft)
05.04.2013 03:48 0,6 C -1,0 C 84 % 1009,0 hPa 0,0 l/m 0 min 0 min 0,0 UV-I 0 W/m 2,6 km/h (1 Bft)
05.04.2013 03:50 0,6 C -1,0 C 84 % 1009,0 hPa 0,0 l/m 0 min 0 min 0,0 UV-I 0 W/m 0,0 km/h (0 Bft)
05.04.2013 03:52 0,6 C -0,4 C 84 % 1009,0 hPa 0,0 l/m 0 min 0 min 0,0 UV-I 0 W/m 2,6 km/h (1 Bft)
05.04.2013 03:54 0,6 C -0,4 C 84 % 1009,0 hPa 0,0 l/m 0 min 0 min 0,0 UV-I 0 W/m 2,6 km/h (1 Bft)
05.04.2013 03:56 0,7 C -0,4 C 84 % 1009,0 hPa 0,0 l/m 0 min 0 min 0,0 UV-I 0 W/m 5,1 km/h (1 Bft)
05.04.2013 03:58 0,7 C -0,4 C 84 % 1009,1 hPa 0,0 l/m 0 min 0 min 0,0 UV-I 0 W/m 2,6 km/h (1 Bft)
05.04.2013 04:00 0,7 C -0,4 C 84 % 1009,1 hPa 0,0 l/m 0 min 0 min 0,0 UV-I 0 W/m 5,1 km/h (1 Bft)
05.04.2013 04:02 0,7 C -0,4 C 84 % 1009,1 hPa 0,0 l/m 0 min 0 min 0,0 UV-I 0 W/m 0,0 km/h (0 Bft)
05.04.2013 04:04 0,7 C 0,1 C 84 % 1009,1 hPa 0,0 l/m 0 min 0 min 0,0 UV-I 0 W/m 2,6 km/h (1 Bft)
05.04.2013 04:06 0,8 C 0,1 C 84 % 1009,0 hPa 0,0 l/m 0 min 0 min 0,0 UV-I 0 W/m 7,7 km/h (2 Bft)
05.04.2013 04:08 0,8 C 0,1 C 84 % 1009,0 hPa 0,0 l/m 0 min 0 min 0,0 UV-I 0 W/m 7,7 km/h (2 Bft)
05.04.2013 04:10 0,9 C 0,1 C 84 % 1009,1 hPa 0,0 l/m 0 min 0 min 0,0 UV-I 0 W/m 0,0 km/h (0 Bft)
05.04.2013 04:12 0,9 C 0,1 C 84 % 1009,0 hPa 0,0 l/m 0 min 0 min 0,0 UV-I 0 W/m 5,1 km/h (1 Bft)
05.04.2013 04:14 1,1 C 0,7 C 84 % 1009,0 hPa 0,0 l/m 0 min 0 min 0,0 UV-I 0 W/m 23,2 km/h (4 Bft)
05.04.2013 04:16 1,1 C 0,7 C 83 % 1009,1 hPa 0,0 l/m 0 min 0 min 0,0 UV-I 0 W/m 0,0 km/h (0 Bft)
05.04.2013 04:18 1,2 C 0,7 C 83 % 1009,1 hPa 0,0 l/m 0 min 0 min 0,0 UV-I 0 W/m 2,6 km/h (1 Bft)
05.04.2013 04:20 1,2 C 0,7 C 83 % 1009,1 hPa 0,0 l/m 0 min 0 min 0,0 UV-I 0 W/m 5,1 km/h (1 Bft)
05.04.2013 04:22 1,2 C 0,7 C 83 % 1009,1 hPa 0,0 l/m 0 min 0 min 0,0 UV-I 0 W/m 7,7 km/h (2 Bft)
05.04.2013 04:24 1,3 C 0,7 C 83 % 1009,1 hPa 0,0 l/m 0 min 0 min 0,0 UV-I 0 W/m 7,7 km/h (2 Bft)
05.04.2013 04:26 1,3 C 0,7 C 83 % 1009,0 hPa 0,0 l/m 0 min 0 min 0,0 UV-I 0 W/m 12,9 km/h (3 Bft)
05.04.2013 04:28 1,3 C 0,7 C 82 % 1009,0 hPa 0,0 l/m 0 min 0 min 0,0 UV-I 0 W/m 0,0 km/h (0 Bft)
05.04.2013 04:30 1,3 C 0,7 C 82 % 1009,1 hPa 0,0 l/m 0 min 0 min 0,0 UV-I 0 W/m 12,9 km/h (3 Bft)
05.04.2013 04:32 1,3 C 0,7 C 82 % 1009,1 hPa 0,0 l/m 0 min 0 min 0,0 UV-I 0 W/m 12,9 km/h (3 Bft)
05.04.2013 04:34 1,4 C 0,7 C 82 % 1009,1 hPa 0,0 l/m 0 min 0 min 0,0 UV-I 0 W/m 0,0 km/h (0 Bft)
05.04.2013 04:36 1,4 C 0,7 C 82 % 1009,1 hPa 0,0 l/m 0 min 0 min 0,0 UV-I 0 W/m 2,6 km/h (1 Bft)
05.04.2013 04:38 1,4 C 0,7 C 82 % 1009,2 hPa 0,0 l/m 0 min 0 min 0,0 UV-I 0 W/m 2,6 km/h (1 Bft)
05.04.2013 04:40 1,5 C 0,7 C 82 % 1009,1 hPa 0,0 l/m 0 min 0 min 0,0 UV-I 0 W/m 10,3 km/h (2 Bft)
05.04.2013 04:42 1,6 C 0,7 C 81 % 1009,1 hPa 0,0 l/m 0 min 0 min 0,0 UV-I 0 W/m 0,0 km/h (0 Bft)
05.04.2013 04:44 1,6 C 0,7 C 81 % 1009,1 hPa 0,0 l/m 0 min 0 min 0,0 UV-I 0 W/m 15,4 km/h (3 Bft)
05.04.2013 04:46 1,6 C 0,7 C 81 % 1009,1 hPa 0,0 l/m 0 min 0 min 0,0 UV-I 0 W/m 0,0 km/h (0 Bft)
05.04.2013 04:48 1,6 C 0,7 C 81 % 1009,1 hPa 0,0 l/m 0 min 0 min 0,0 UV-I 0 W/m 0,0 km/h (0 Bft)
05.04.2013 04:50 1,6 C 0,7 C 81 % 1009,0 hPa 0,0 l/m 0 min 0 min 0,0 UV-I 0 W/m 7,7 km/h (2 Bft)
05.04.2013 04:52 1,7 C 0,7 C 81 % 1009,1 hPa 0,0 l/m 0 min 0 min 0,0 UV-I 0 W/m 7,7 km/h (2 Bft)
05.04.2013 04:54 1,7 C 0,7 C 81 % 1009,1 hPa 0,0 l/m 0 min 0 min 0,0 UV-I 0 W/m 0,0 km/h (0 Bft)
05.04.2013 04:56 1,7 C 0,7 C 81 % 1009,0 hPa 0,0 l/m 0 min 0 min 0,0 UV-I 0 W/m 2,6 km/h (1 Bft)
05.04.2013 04:58 1,7 C 0,7 C 81 % 1009,1 hPa 0,0 l/m 0 min 0 min 0,0 UV-I 0 W/m 0,0 km/h (0 Bft)
05.04.2013 05:00 1,7 C 0,7 C 81 % 1009,0 hPa 0,0 l/m 0 min 0 min 0,0 UV-I 0 W/m 0,0 km/h (0 Bft)
05.04.2013 05:02 1,8 C 0,7 C 81 % 1009,0 hPa 0,0 l/m 0 min 0 min 0,0 UV-I 0 W/m 0,0 km/h (0 Bft)
05.04.2013 05:04 1,8 C 0,7 C 81 % 1009,0 hPa 0,0 l/m 0 min 0 min 0,0 UV-I 0 W/m 2,6 km/h (1 Bft)
05.04.2013 05:06 1,8 C 0,7 C 81 % 1009,0 hPa 0,0 l/m 0 min 0 min 0,0 UV-I 0 W/m 0,0 km/h (0 Bft)
05.04.2013 05:08 1,8 C 0,7 C 81 % 1009,0 hPa 0,0 l/m 0 min 0 min 0,0 UV-I 0 W/m 0,0 km/h (0 Bft)
05.04.2013 05:10 1,8 C 0,7 C 81 % 1009,0 hPa 0,0 l/m 0 min 0 min 0,0 UV-I 0 W/m 0,0 km/h (0 Bft)
05.04.2013 05:12 1,8 C 0,7 C 81 % 1009,0 hPa 0,0 l/m 0 min 0 min 0,0 UV-I 0 W/m 0,0 km/h (0 Bft)
05.04.2013 05:14 1,8 C 0,7 C 81 % 1009,0 hPa 0,0 l/m 0 min 0 min 0,0 UV-I 0 W/m 0,0 km/h (0 Bft)
05.04.2013 05:16 1,8 C 0,7 C 81 % 1009,0 hPa 0,0 l/m 0 min 0 min 0,0 UV-I 0 W/m 0,0 km/h (0 Bft)
05.04.2013 05:18 1,8 C 0,7 C 81 % 1009,0 hPa 0,0 l/m 0 min 0 min 0,0 UV-I 0 W/m 0,0 km/h (0 Bft)
05.04.2013 05:20 1,8 C 0,7 C 81 % 1009,0 hPa 0,0 l/m 0 min 0 min 0,0 UV-I 0 W/m 0,0 km/h (0 Bft)
05.04.2013 05:22 1,8 C 0,7 C 81 % 1009,0 hPa 0,0 l/m 0 min 0 min 0,0 UV-I 0 W/m 0,0 km/h (0 Bft)
05.04.2013 05:24 1,8 C 1,2 C 81 % 1008,9 hPa 0,0 l/m 0 min 0 min 0,0 UV-I 0 W/m 10,3 km/h (2 Bft)
05.04.2013 05:26 1,8 C 1,2 C 80 % 1008,9 hPa 0,0 l/m 0 min 0 min 0,0 UV-I 0 W/m 20,6 km/h (4 Bft)
05.04.2013 05:28 1,8 C 1,2 C 80 % 1008,9 hPa 0,0 l/m 0 min 0 min 0,0 UV-I 0 W/m 2,6 km/h (1 Bft)
05.04.2013 05:30 1,8 C 1,2 C 80 % 1008,9 hPa 0,0 l/m 0 min 0 min 0,0 UV-I 0 W/m 7,7 km/h (2 Bft)
05.04.2013 05:32 1,8 C 1,2 C 80 % 1008,9 hPa 0,0 l/m 0 min 0 min 0,0 UV-I 0 W/m 7,7 km/h (2 Bft)
05.04.2013 05:34 1,9 C 1,2 C 80 % 1008,9 hPa 0,0 l/m 0 min 0 min 0,0 UV-I 0 W/m 7,7 km/h (2 Bft)
05.04.2013 05:36 1,9 C 1,2 C 80 % 1008,9 hPa 0,0 l/m 0 min 0 min 0,0 UV-I 0 W/m 2,6 km/h (1 Bft)
05.04.2013 05:38 1,9 C 1,2 C 80 % 1008,9 hPa 0,0 l/m 0 min 0 min 0,0 UV-I 0 W/m 0,0 km/h (0 Bft)
05.04.2013 05:40 1,9 C 1,2 C 80 % 1008,8 hPa 0,0 l/m 0 min 0 min 0,0 UV-I 0 W/m 18,0 km/h (3 Bft)
05.04.2013 05:42 1,9 C 1,2 C 80 % 1008,9 hPa 0,0 l/m 0 min 0 min 0,0 UV-I 0 W/m 2,6 km/h (1 Bft)
05.04.2013 05:44 1,9 C 1,2 C 79 % 1008,9 hPa 0,0 l/m 0 min 0 min 0,0 UV-I 0 W/m 12,9 km/h (3 Bft)
05.04.2013 05:46 1,9 C 1,2 C 80 % 1008,9 hPa 0,0 l/m 0 min 0 min 0,0 UV-I 0 W/m 5,1 km/h (1 Bft)
05.04.2013 05:48 1,9 C 1,2 C 79 % 1008,9 hPa 0,0 l/m 0 min 0 min 0,0 UV-I 0 W/m 7,7 km/h (2 Bft)
05.04.2013 05:50 2,0 C 1,2 C 79 % 1008,9 hPa 0,0 l/m 0 min 0 min 0,0 UV-I 0 W/m 0,0 km/h (0 Bft)
05.04.2013 05:52 2,0 C 1,2 C 80 % 1008,9 hPa 0,0 l/m 0 min 0 min 0,0 UV-I 0 W/m 0,0 km/h (0 Bft)
05.04.2013 05:54 2,0 C 1,2 C 80 % 1008,9 hPa 0,0 l/m 0 min 0 min 0,0 UV-I 0 W/m 5,1 km/h (1 Bft)
05.04.2013 05:56 2,0 C 1,2 C 80 % 1008,9 hPa 0,0 l/m 0 min 0 min 0,0 UV-I 0 W/m 0,0 km/h (0 Bft)
05.04.2013 05:58 2,0 C 1,2 C 80 % 1008,9 hPa 0,0 l/m 0 min 0 min 0,0 UV-I 0 W/m 12,9 km/h (3 Bft)
05.04.2013 06:00 2,1 C 1,2 C 79 % 1008,9 hPa 0,0 l/m 0 min 0 min 0,0 UV-I 0 W/m 10,3 km/h (2 Bft)
05.04.2013 06:02 2,1 C 1,2 C 79 % 1008,9 hPa 0,0 l/m 0 min 0 min 0,0 UV-I 0 W/m 2,6 km/h (1 Bft)
05.04.2013 06:06 2,1 C 1,2 C 79 % 1008,9 hPa 0,0 l/m 0 min 0 min 0,0 UV-I 0 W/m 0,0 km/h (0 Bft)
05.04.2013 06:08 2,1 C 1,2 C 79 % 1008,9 hPa 0,0 l/m 0 min 0 min 0,0 UV-I 0 W/m 0,0 km/h (0 Bft)
05.04.2013 06:10 2,1 C 1,2 C 79 % 1009,0 hPa 0,0 l/m 0 min 0 min 0,0 UV-I 0 W/m 2,6 km/h (1 Bft)
05.04.2013 06:12 2,1 C 1,2 C 79 % 1009,0 hPa 0,0 l/m 0 min 0 min 0,0 UV-I 0 W/m 0,0 km/h (0 Bft)
05.04.2013 06:14 2,1 C 1,2 C 79 % 1009,0 hPa 0,0 l/m 0 min 0 min 0,0 UV-I 0 W/m 5,1 km/h (1 Bft)
05.04.2013 06:16 2,1 C 1,2 C 79 % 1008,9 hPa 0,0 l/m 0 min 0 min 0,0 UV-I 0 W/m 7,7 km/h (2 Bft)
05.04.2013 06:18 2,1 C 1,2 C 79 % 1008,9 hPa 0,0 l/m 0 min 0 min 0,0 UV-I 0 W/m 2,6 km/h (1 Bft)
05.04.2013 06:20 2,1 C 1,2 C 79 % 1009,0 hPa 0,0 l/m 0 min 0 min 0,0 UV-I 0 W/m 5,1 km/h (1 Bft)
05.04.2013 06:22 2,1 C 1,2 C 79 % 1008,9 hPa 0,0 l/m 0 min 0 min 0,0 UV-I 0 W/m 0,0 km/h (0 Bft)
05.04.2013 06:24 2,1 C 1,2 C 79 % 1009,0 hPa 0,0 l/m 0 min 0 min 0,0 UV-I 0 W/m 2,6 km/h (1 Bft)
05.04.2013 06:26 2,1 C 1,2 C 79 % 1008,9 hPa 0,0 l/m 0 min 0 min 0,0 UV-I 0 W/m 0,0 km/h (0 Bft)
05.04.2013 06:28 2,1 C 1,2 C 79 % 1009,0 hPa 0,0 l/m 0 min 0 min 0,0 UV-I 0 W/m 10,3 km/h (2 Bft)
05.04.2013 06:30 2,1 C 1,2 C 79 % 1009,0 hPa 0,0 l/m 0 min 0 min 0,0 UV-I 0 W/m 0,0 km/h (0 Bft)
05.04.2013 06:32 2,2 C 1,2 C 79 % 1008,9 hPa 0,0 l/m 0 min 0 min 0,0 UV-I 0 W/m 2,6 km/h (1 Bft)
05.04.2013 06:34 2,1 C 1,2 C 79 % 1008,9 hPa 0,0 l/m 0 min 0 min 0,0 UV-I 0 W/m 2,6 km/h (1 Bft)
05.04.2013 06:36 2,2 C 1,2 C 79 % 1009,0 hPa 0,0 l/m 0 min 0 min 0,0 UV-I 0 W/m 2,6 km/h (1 Bft)
05.04.2013 06:38 2,2 C 1,2 C 79 % 1009,0 hPa 0,0 l/m 0 min 0 min 0,0 UV-I 0 W/m 2,6 km/h (1 Bft)
05.04.2013 06:40 2,2 C 1,2 C 79 % 1009,1 hPa 0,0 l/m 0 min 0 min 0,0 UV-I 0 W/m 5,1 km/h (1 Bft)
05.04.2013 06:42 2,2 C 1,2 C 79 % 1009,0 hPa 0,0 l/m 0 min 0 min 0,0 UV-I 0 W/m 7,7 km/h (2 Bft)
05.04.2013 06:44 2,2 C 1,2 C 79 % 1009,0 hPa 0,0 l/m 0 min 0 min 0,0 UV-I 0 W/m 10,3 km/h (2 Bft)
05.04.2013 06:46 2,2 C 1,2 C 79 % 1009,0 hPa 0,0 l/m 0 min 0 min 0,0 UV-I 0 W/m 5,1 km/h (1 Bft)
05.04.2013 06:48 2,2 C 1,2 C 79 % 1009,0 hPa 0,0 l/m 0 min 0 min 0,0 UV-I 0 W/m 7,7 km/h (2 Bft)
05.04.2013 06:50 2,2 C 1,2 C 79 % 1009,0 hPa 0,0 l/m 0 min 0 min 0,0 UV-I 0 W/m 2,6 km/h (1 Bft)
05.04.2013 06:52 2,2 C 1,2 C 79 % 1009,0 hPa 0,0 l/m 0 min 0 min 0,0 UV-I 0 W/m 0,0 km/h (0 Bft)
05.04.2013 06:54 2,2 C 1,2 C 79 % 1009,1 hPa 0,0 l/m 0 min 0 min 0,0 UV-I 0 W/m 0,0 km/h (0 Bft)
05.04.2013 06:56 2,2 C 1,2 C 79 % 1009,0 hPa 0,0 l/m 0 min 0 min 0,0 UV-I 0 W/m 0,0 km/h (0 Bft)
05.04.2013 06:58 2,2 C 1,2 C 79 % 1009,0 hPa 0,0 l/m 0 min 0 min 0,0 UV-I 0 W/m 5,1 km/h (1 Bft)
05.04.2013 07:00 2,2 C 1,2 C 79 % 1009,0 hPa 0,0 l/m 0 min 0 min 0,0 UV-I 0 W/m 2,6 km/h (1 Bft)
05.04.2013 07:02 2,2 C 1,2 C 79 % 1009,0 hPa 0,0 l/m 0 min 0 min 0,0 UV-I 0 W/m 15,4 km/h (3 Bft)
05.04.2013 07:04 2,2 C 1,2 C 79 % 1009,0 hPa 0,0 l/m 0 min 0 min 0,0 UV-I 0 W/m 10,3 km/h (2 Bft)
05.04.2013 07:06 2,2 C 1,2 C 79 % 1009,0 hPa 0,0 l/m 0 min 0 min 0,0 UV-I 0 W/m 7,7 km/h (2 Bft)
05.04.2013 07:08 2,2 C 1,2 C 79 % 1009,0 hPa 0,0 l/m 0 min 0 min 0,0 UV-I 0 W/m 5,1 km/h (1 Bft)
05.04.2013 07:10 2,2 C 1,2 C 79 % 1009,1 hPa 0,0 l/m 0 min 0 min 0,0 UV-I 0 W/m 2,6 km/h (1 Bft)
05.04.2013 07:12 2,2 C 1,2 C 79 % 1009,0 hPa 0,0 l/m 0 min 0 min 0,0 UV-I 0 W/m 5,1 km/h (1 Bft)
05.04.2013 07:14 2,2 C 1,2 C 79 % 1009,1 hPa 0,0 l/m 0 min 0 min 0,0 UV-I 0 W/m 0,0 km/h (0 Bft)
05.04.2013 07:16 2,2 C 1,2 C 79 % 1009,1 hPa 0,0 l/m 0 min 0 min 0,0 UV-I 0 W/m 5,1 km/h (1 Bft)
05.04.2013 07:18 2,2 C 1,2 C 79 % 1009,1 hPa 0,0 l/m 0 min 0 min 0,0 UV-I 0 W/m 7,7 km/h (2 Bft)
05.04.2013 07:20 2,2 C 1,2 C 79 % 1009,1 hPa 0,0 l/m 0 min 0 min 0,0 UV-I 0 W/m 5,1 km/h (1 Bft)
05.04.2013 07:22 2,2 C 1,2 C 79 % 1009,1 hPa 0,0 l/m 0 min 0 min 0,0 UV-I 0 W/m 5,1 km/h (1 Bft)
05.04.2013 07:24 2,2 C 1,2 C 79 % 1009,1 hPa 0,0 l/m 0 min 0 min 0,0 UV-I 5 W/m 7,7 km/h (2 Bft)
05.04.2013 07:26 2,2 C 1,2 C 79 % 1009,1 hPa 0,0 l/m 0 min 0 min 0,0 UV-I 5 W/m 10,3 km/h (2 Bft)
05.04.2013 07:28 2,2 C 1,2 C 79 % 1009,1 hPa 0,0 l/m 0 min 0 min 0,0 UV-I 5 W/m 23,2 km/h (4 Bft)
05.04.2013 07:30 2,2 C 1,2 C 79 % 1009,0 hPa 0,0 l/m 0 min 0 min 0,0 UV-I 5 W/m 15,4 km/h (3 Bft)
05.04.2013 07:32 2,2 C 1,2 C 79 % 1009,1 hPa 0,0 l/m 0 min 0 min 0,0 UV-I 7 W/m 23,2 km/h (4 Bft)
05.04.2013 07:34 2,3 C 1,2 C 79 % 1009,2 hPa 0,0 l/m 0 min 0 min 0,0 UV-I 7 W/m 10,3 km/h (2 Bft)
05.04.2013 07:36 2,3 C 1,2 C 79 % 1009,1 hPa 0,0 l/m 0 min 0 min 0,0 UV-I 7 W/m 10,3 km/h (2 Bft)
05.04.2013 07:38 2,3 C 1,2 C 79 % 1009,2 hPa 0,0 l/m 0 min 0 min 0,0 UV-I 9 W/m 7,7 km/h (2 Bft)
05.04.2013 07:40 2,3 C 1,2 C 79 % 1009,2 hPa 0,0 l/m 0 min 0 min 0,0 UV-I 9 W/m 7,7 km/h (2 Bft)
05.04.2013 07:42 2,3 C 1,2 C 79 % 1009,2 hPa 0,0 l/m 0 min 0 min 0,0 UV-I 9 W/m 7,7 km/h (2 Bft)
05.04.2013 07:44 2,3 C 1,2 C 79 % 1009,1 hPa 0,0 l/m 0 min 0 min 0,0 UV-I 9 W/m 5,1 km/h (1 Bft)
05.04.2013 07:46 2,3 C 1,2 C 79 % 1009,2 hPa 0,0 l/m 0 min 0 min 0,0 UV-I 11 W/m 5,1 km/h (1 Bft)
05.04.2013 07:48 2,3 C 1,2 C 79 % 1009,2 hPa 0,0 l/m 0 min 0 min 0,0 UV-I 11 W/m 0,0 km/h (0 Bft)
05.04.2013 07:50 2,3 C 1,2 C 79 % 1009,2 hPa 0,0 l/m 0 min 0 min 0,0 UV-I 11 W/m 5,1 km/h (1 Bft)
05.04.2013 07:52 2,3 C 1,2 C 79 % 1009,2 hPa 0,0 l/m 0 min 0 min 0,0 UV-I 11 W/m 0,0 km/h (0 Bft)
05.04.2013 07:54 2,3 C 1,2 C 79 % 1009,2 hPa 0,0 l/m 0 min 0 min 0,0 UV-I 11 W/m 0,0 km/h (0 Bft)
05.04.2013 07:56 2,3 C 1,2 C 80 % 1009,2 hPa 0,0 l/m 0 min 0 min 0,0 UV-I 12 W/m 0,0 km/h (0 Bft)
05.04.2013 07:58 2,2 C 1,2 C 80 % 1009,1 hPa 0,0 l/m 0 min 0 min 0,0 UV-I 12 W/m 7,7 km/h (2 Bft)
05.04.2013 08:00 2,3 C 1,2 C 79 % 1009,2 hPa 0,0 l/m 0 min 0 min 0,0 UV-I 14 W/m 7,7 km/h (2 Bft)
05.04.2013 08:02 2,3 C 1,2 C 79 % 1009,2 hPa 0,0 l/m 0 min 0 min 0,0 UV-I 14 W/m 10,3 km/h (2 Bft)
05.04.2013 08:04 2,2 C 1,2 C 79 % 1009,2 hPa 0,0 l/m 0 min 0 min 0,0 UV-I 14 W/m 10,3 km/h (2 Bft)
05.04.2013 08:06 2,2 C 1,2 C 79 % 1009,2 hPa 0,0 l/m 0 min 0 min 0,0 UV-I 16 W/m 10,3 km/h (2 Bft)
05.04.2013 08:08 2,3 C 1,2 C 79 % 1009,2 hPa 0,0 l/m 0 min 0 min 0,0 UV-I 16 W/m 10,3 km/h (2 Bft)
05.04.2013 08:10 2,2 C 1,2 C 79 % 1009,2 hPa 0,0 l/m 0 min 0 min 0,0 UV-I 18 W/m 10,3 km/h (2 Bft)
05.04.2013 08:12 2,2 C 1,2 C 79 % 1009,3 hPa 0,0 l/m 0 min 0 min 0,0 UV-I 18 W/m 5,1 km/h (1 Bft)
05.04.2013 08:14 2,2 C 1,2 C 79 % 1009,2 hPa 0,0 l/m 0 min 0 min 0,0 UV-I 18 W/m 2,6 km/h (1 Bft)
05.04.2013 08:16 2,2 C 1,2 C 79 % 1009,3 hPa 0,0 l/m 0 min 0 min 0,0 UV-I 18 W/m 5,1 km/h (1 Bft)
05.04.2013 08:18 2,3 C 1,2 C 79 % 1009,3 hPa 0,0 l/m 0 min 0 min 0,0 UV-I 18 W/m 2,6 km/h (1 Bft)
05.04.2013 08:20 2,3 C 1,2 C 79 % 1009,3 hPa 0,0 l/m 0 min 0 min 0,0 UV-I 18 W/m 7,7 km/h (2 Bft)
05.04.2013 08:22 2,2 C 1,2 C 79 % 1009,2 hPa 0,0 l/m 0 min 0 min 0,0 UV-I 19 W/m 10,3 km/h (2 Bft)
05.04.2013 08:24 2,2 C 1,2 C 79 % 1009,2 hPa 0,0 l/m 0 min 0 min 0,0 UV-I 19 W/m 7,7 km/h (2 Bft)
05.04.2013 08:26 2,2 C 1,2 C 79 % 1009,4 hPa 0,0 l/m 0 min 0 min 0,0 UV-I 19 W/m 7,7 km/h (2 Bft)
05.04.2013 08:28 2,3 C 1,2 C 79 % 1009,3 hPa 0,0 l/m 0 min 0 min 0,0 UV-I 19 W/m 10,3 km/h (2 Bft)
05.04.2013 08:30 2,2 C 1,2 C 79 % 1009,3 hPa 0,0 l/m 0 min 0 min 0,0 UV-I 19 W/m 5,1 km/h (1 Bft)
05.04.2013 08:32 2,2 C 1,2 C 79 % 1009,3 hPa 0,0 l/m 0 min 0 min 0,0 UV-I 16 W/m 5,1 km/h (1 Bft)
05.04.2013 08:34 2,3 C 1,2 C 79 % 1009,3 hPa 0,0 l/m 0 min 0 min 0,0 UV-I 16 W/m 0,0 km/h (0 Bft)
05.04.2013 08:36 2,3 C 1,2 C 79 % 1009,3 hPa 0,0 l/m 0 min 0 min 0,0 UV-I 18 W/m 10,3 km/h (2 Bft)
05.04.2013 08:38 2,3 C 1,2 C 79 % 1009,3 hPa 0,0 l/m 0 min 0 min 0,0 UV-I 19 W/m 10,3 km/h (2 Bft)
05.04.2013 08:40 2,3 C 1,2 C 79 % 1009,3 hPa 0,0 l/m 0 min 0 min 0,0 UV-I 21 W/m 7,7 km/h (2 Bft)
05.04.2013 08:42 2,2 C 1,2 C 79 % 1009,4 hPa 0,0 l/m 0 min 0 min 0,0 UV-I 21 W/m 12,9 km/h (3 Bft)
05.04.2013 08:44 2,2 C 1,2 C 79 % 1009,4 hPa 0,0 l/m 0 min 0 min 0,0 UV-I 19 W/m 25,7 km/h (4 Bft)
05.04.2013 08:46 2,2 C 1,2 C 79 % 1009,4 hPa 0,0 l/m 0 min 0 min 0,0 UV-I 19 W/m 7,7 km/h (2 Bft)
05.04.2013 08:48 2,2 C 1,2 C 79 % 1009,4 hPa 0,0 l/m 0 min 0 min 0,0 UV-I 23 W/m 7,7 km/h (2 Bft)
05.04.2013 08:50 2,2 C 1,2 C 79 % 1009,4 hPa 0,0 l/m 0 min 0 min 0,0 UV-I 23 W/m 10,3 km/h (2 Bft)
05.04.2013 08:52 2,2 C 1,8 C 79 % 1009,5 hPa 0,0 l/m 0 min 0 min 0,0 UV-I 25 W/m 0,0 km/h (0 Bft)
05.04.2013 08:54 2,2 C 1,8 C 79 % 1009,4 hPa 0,0 l/m 0 min 0 min 0,0 UV-I 28 W/m 0,0 km/h (0 Bft)
05.04.2013 08:56 2,3 C 1,8 C 79 % 1009,5 hPa 0,0 l/m 0 min 0 min 0,0 UV-I 30 W/m 2,6 km/h (1 Bft)
05.04.2013 08:58 2,2 C 1,8 C 79 % 1009,4 hPa 0,0 l/m 0 min 0 min 0,0 UV-I 30 W/m 5,1 km/h (1 Bft)
05.04.2013 09:00 2,3 C 1,8 C 79 % 1009,5 hPa 0,0 l/m 0 min 0 min 0,0 UV-I 32 W/m 12,9 km/h (3 Bft)
05.04.2013 09:02 2,3 C 1,8 C 79 % 1009,5 hPa 0,0 l/m 0 min 0 min 0,0 UV-I 32 W/m 7,7 km/h (2 Bft)
05.04.2013 09:06 2,3 C 1,8 C 79 % 1009,6 hPa 0,0 l/m 0 min 0 min 0,0 UV-I 35 W/m 10,3 km/h (2 Bft)
05.04.2013 09:08 2,3 C 1,8 C 79 % 1009,5 hPa 0,0 l/m 0 min 0 min 0,0 UV-I 33 W/m 10,3 km/h (2 Bft)
05.04.2013 09:10 2,3 C 1,8 C 79 % 1009,6 hPa 0,0 l/m 0 min 0 min 0,0 UV-I 30 W/m 7,7 km/h (2 Bft)
05.04.2013 09:12 2,3 C 1,8 C 79 % 1009,6 hPa 0,0 l/m 0 min 0 min 0,0 UV-I 28 W/m 10,3 km/h (2 Bft)
05.04.2013 09:14 2,3 C 1,8 C 79 % 1009,6 hPa 0,0 l/m 0 min 0 min 0,0 UV-I 28 W/m 10,3 km/h (2 Bft)
05.04.2013 09:16 2,3 C 1,8 C 79 % 1009,7 hPa 0,0 l/m 0 min 0 min 0,0 UV-I 30 W/m 0,0 km/h (0 Bft)
05.04.2013 09:18 2,3 C 1,8 C 79 % 1009,7 hPa 0,0 l/m 0 min 0 min 0,0 UV-I 30 W/m 15,4 km/h (3 Bft)
05.04.2013 09:20 2,3 C 1,8 C 79 % 1009,7 hPa 0,0 l/m 0 min 0 min 0,0 UV-I 32 W/m 7,7 km/h (2 Bft)
05.04.2013 09:22 2,3 C 1,8 C 79 % 1009,7 hPa 0,0 l/m 0 min 0 min 0,0 UV-I 32 W/m 10,3 km/h (2 Bft)
05.04.2013 09:24 2,3 C 1,8 C 79 % 1009,8 hPa 0,0 l/m 0 min 0 min 0,0 UV-I 33 W/m 7,7 km/h (2 Bft)
05.04.2013 09:26 2,3 C 1,8 C 79 % 1009,8 hPa 0,0 l/m 0 min 0 min 0,0 UV-I 35 W/m 10,3 km/h (2 Bft)
05.04.2013 09:28 2,3 C 1,8 C 79 % 1009,8 hPa 0,0 l/m 0 min 0 min 0,0 UV-I 33 W/m 7,7 km/h (2 Bft)
05.04.2013 09:30 2,3 C 1,8 C 79 % 1009,9 hPa 0,0 l/m 0 min 0 min 0,0 UV-I 33 W/m 12,9 km/h (3 Bft)
05.04.2013 09:32 2,3 C 1,8 C 78 % 1009,8 hPa 0,0 l/m 0 min 0 min 0,0 UV-I 32 W/m 18,0 km/h (3 Bft)
05.04.2013 09:34 2,3 C 1,8 C 78 % 1009,8 hPa 0,0 l/m 0 min 0 min 0,0 UV-I 33 W/m 23,2 km/h (4 Bft)
05.04.2013 09:36 2,3 C 1,8 C 78 % 1009,8 hPa 0,0 l/m 0 min 0 min 0,0 UV-I 33 W/m 18,0 km/h (3 Bft)
05.04.2013 09:38 2,2 C 1,8 C 79 % 1009,9 hPa 0,0 l/m 0 min 0 min 0,0 UV-I 33 W/m 23,2 km/h (4 Bft)
05.04.2013 09:40 2,3 C 1,8 C 79 % 1009,8 hPa 0,0 l/m 0 min 0 min 0,0 UV-I 37 W/m 12,9 km/h (3 Bft)
05.04.2013 09:42 2,3 C 1,8 C 79 % 1009,9 hPa 0,0 l/m 0 min 0 min 0,0 UV-I 37 W/m 10,3 km/h (2 Bft)
05.04.2013 09:44 2,3 C 1,8 C 79 % 1009,9 hPa 0,0 l/m 0 min 0 min 0,0 UV-I 37 W/m 5,1 km/h (1 Bft)
05.04.2013 09:46 2,3 C 1,8 C 79 % 1009,9 hPa 0,0 l/m 0 min 0 min 0,0 UV-I 39 W/m 5,1 km/h (1 Bft)
05.04.2013 09:48 2,3 C 1,8 C 79 % 1009,9 hPa 0,0 l/m 0 min 0 min 0,0 UV-I 39 W/m 7,7 km/h (2 Bft)
05.04.2013 09:50 2,3 C 1,8 C 79 % 1009,9 hPa 0,0 l/m 0 min 0 min 0,0 UV-I 40 W/m 2,6 km/h (1 Bft)
05.04.2013 09:52 2,3 C 1,8 C 79 % 1010,0 hPa 0,0 l/m 0 min 0 min 0,0 UV-I 40 W/m 10,3 km/h (2 Bft)
05.04.2013 09:54 2,3 C 1,8 C 79 % 1009,9 hPa 0,0 l/m 0 min 0 min 0,0 UV-I 40 W/m 7,7 km/h (2 Bft)
05.04.2013 09:56 2,3 C 1,8 C 79 % 1009,9 hPa 0,0 l/m 0 min 0 min 0,0 UV-I 42 W/m 15,4 km/h (3 Bft)
05.04.2013 09:58 2,3 C 1,8 C 79 % 1009,9 hPa 0,0 l/m 0 min 0 min 0,0 UV-I 42 W/m 10,3 km/h (2 Bft)
05.04.2013 10:00 2,3 C 1,8 C 79 % 1009,9 hPa 0,0 l/m 0 min 0 min 0,0 UV-I 40 W/m 7,7 km/h (2 Bft)
05.04.2013 10:02 2,3 C 1,8 C 79 % 1009,9 hPa 0,0 l/m 0 min 0 min 0,0 UV-I 40 W/m 7,7 km/h (2 Bft)
05.04.2013 10:04 2,3 C 1,8 C 79 % 1009,9 hPa 0,0 l/m 0 min 0 min 0,0 UV-I 39 W/m 15,4 km/h (3 Bft)
05.04.2013 10:06 2,3 C 1,8 C 79 % 1009,9 hPa 0,0 l/m 0 min 0 min 0,0 UV-I 39 W/m 7,7 km/h (2 Bft)
05.04.2013 10:08 2,4 C 1,8 C 79 % 1010,0 hPa 0,0 l/m 0 min 0 min 0,0 UV-I 39 W/m 15,4 km/h (3 Bft)
05.04.2013 10:10 2,3 C 1,8 C 79 % 1010,0 hPa 0,0 l/m 0 min 0 min 0,0 UV-I 40 W/m 18,0 km/h (3 Bft)
05.04.2013 10:12 2,4 C 1,8 C 79 % 1010,0 hPa 0,0 l/m 0 min 0 min 0,0 UV-I 42 W/m 15,4 km/h (3 Bft)
05.04.2013 10:14 2,4 C 1,8 C 79 % 1010,1 hPa 0,0 l/m 0 min 0 min 0,0 UV-I 42 W/m 15,4 km/h (3 Bft)
05.04.2013 10:16 2,4 C 1,8 C 79 % 1010,1 hPa 0,0 l/m 0 min 0 min 0,0 UV-I 46 W/m 7,7 km/h (2 Bft)
05.04.2013 10:18 2,4 C 1,8 C 79 % 1010,1 hPa 0,0 l/m 0 min 0 min 0,0 UV-I 46 W/m 10,3 km/h (2 Bft)
05.04.2013 10:20 2,4 C 1,8 C 79 % 1010,1 hPa 0,0 l/m 0 min 0 min 0,0 UV-I 44 W/m 10,3 km/h (2 Bft)
05.04.2013 10:22 2,4 C 1,8 C 79 % 1010,1 hPa 0,0 l/m 0 min 0 min 0,0 UV-I 42 W/m 7,7 km/h (2 Bft)
05.04.2013 10:24 2,4 C 1,8 C 79 % 1010,1 hPa 0,0 l/m 0 min 0 min 0,0 UV-I 42 W/m 15,4 km/h (3 Bft)
05.04.2013 10:26 2,4 C 1,8 C 79 % 1010,1 hPa 0,0 l/m 0 min 0 min 0,0 UV-I 42 W/m 10,3 km/h (2 Bft)
05.04.2013 10:28 2,4 C 1,8 C 80 % 1010,1 hPa 0,0 l/m 0 min 0 min 0,0 UV-I 44 W/m 7,7 km/h (2 Bft)
05.04.2013 10:30 2,4 C 1,8 C 80 % 1010,2 hPa 0,0 l/m 0 min 0 min 0,0 UV-I 44 W/m 10,3 km/h (2 Bft)
05.04.2013 10:32 2,4 C 1,8 C 80 % 1010,2 hPa 0,0 l/m 0 min 0 min 0,0 UV-I 46 W/m 10,3 km/h (2 Bft)
05.04.2013 10:34 2,4 C 1,8 C 80 % 1010,1 hPa 0,0 l/m 0 min 0 min 0,0 UV-I 49 W/m 18,0 km/h (3 Bft)
05.04.2013 10:36 2,4 C 1,8 C 80 % 1010,2 hPa 0,0 l/m 0 min 0 min 0,0 UV-I 49 W/m 10,3 km/h (2 Bft)
05.04.2013 10:38 2,4 C 1,8 C 79 % 1010,3 hPa 0,0 l/m 0 min 0 min 0,0 UV-I 47 W/m 7,7 km/h (2 Bft)
05.04.2013 10:40 2,4 C 1,8 C 80 % 1010,3 hPa 0,0 l/m 0 min 0 min 0,0 UV-I 47 W/m 5,1 km/h (1 Bft)
05.04.2013 10:42 2,4 C 1,8 C 80 % 1010,2 hPa 0,0 l/m 0 min 0 min 0,0 UV-I 47 W/m 7,7 km/h (2 Bft)
05.04.2013 10:44 2,4 C 1,8 C 80 % 1010,3 hPa 0,0 l/m 0 min 0 min 0,0 UV-I 47 W/m 12,9 km/h (3 Bft)
05.04.2013 10:46 2,4 C 1,8 C 80 % 1010,3 hPa 0,0 l/m 0 min 0 min 0,0 UV-I 47 W/m 10,3 km/h (2 Bft)
05.04.2013 10:48 2,4 C 1,8 C 80 % 1010,3 hPa 0,0 l/m 0 min 0 min 0,0 UV-I 47 W/m 0,0 km/h (0 Bft)
05.04.2013 10:50 2,4 C 1,8 C 80 % 1010,3 hPa 0,0 l/m 0 min 0 min 0,0 UV-I 47 W/m 12,9 km/h (3 Bft)
05.04.2013 10:52 2,4 C 1,8 C 79 % 1010,3 hPa 0,0 l/m 0 min 0 min 0,0 UV-I 47 W/m 12,9 km/h (3 Bft)
05.04.2013 10:54 2,5 C 1,8 C 79 % 1010,3 hPa 0,0 l/m 0 min 0 min 0,0 UV-I 47 W/m 10,3 km/h (2 Bft)
05.04.2013 10:56 2,4 C 1,8 C 79 % 1010,3 hPa 0,0 l/m 0 min 0 min 0,0 UV-I 49 W/m 7,7 km/h (2 Bft)
05.04.2013 10:58 2,5 C 1,8 C 79 % 1010,3 hPa 0,0 l/m 0 min 0 min 0,0 UV-I 49 W/m 7,7 km/h (2 Bft)
05.04.2013 11:00 2,5 C 2,3 C 80 % 1010,2 hPa 0,0 l/m 0 min 0 min 0,0 UV-I 51 W/m 7,7 km/h (2 Bft)
05.04.2013 11:02 2,5 C 2,3 C 79 % 1010,4 hPa 0,0 l/m 0 min 0 min 0,0 UV-I 49 W/m 5,1 km/h (1 Bft)
05.04.2013 11:04 2,5 C 2,3 C 79 % 1010,4 hPa 0,0 l/m 0 min 0 min 0,0 UV-I 49 W/m 12,9 km/h (3 Bft)
05.04.2013 11:06 2,5 C 2,3 C 79 % 1010,4 hPa 0,0 l/m 0 min 0 min 0,0 UV-I 49 W/m 5,1 km/h (1 Bft)
05.04.2013 11:08 2,6 C 2,3 C 80 % 1010,4 hPa 0,0 l/m 0 min 0 min 0,0 UV-I 51 W/m 10,3 km/h (2 Bft)
05.04.2013 11:10 2,6 C 2,3 C 80 % 1010,4 hPa 0,0 l/m 0 min 0 min 0,0 UV-I 51 W/m 10,3 km/h (2 Bft)
05.04.2013 11:12 2,6 C 2,3 C 80 % 1010,5 hPa 0,0 l/m 0 min 0 min 0,0 UV-I 51 W/m 7,7 km/h (2 Bft)
05.04.2013 11:14 2,6 C 2,3 C 79 % 1010,5 hPa 0,0 l/m 0 min 0 min 0,0 UV-I 51 W/m 10,3 km/h (2 Bft)
05.04.2013 11:16 2,6 C 2,3 C 79 % 1010,5 hPa 0,0 l/m 0 min 0 min 0,0 UV-I 49 W/m 7,7 km/h (2 Bft)
05.04.2013 11:18 2,6 C 2,3 C 79 % 1010,5 hPa 0,0 l/m 0 min 0 min 0,0 UV-I 51 W/m 7,7 km/h (2 Bft)
05.04.2013 11:20 2,6 C 2,3 C 80 % 1010,5 hPa 0,0 l/m 0 min 0 min 0,0 UV-I 56 W/m 7,7 km/h (2 Bft)
05.04.2013 11:22 2,6 C 2,3 C 79 % 1010,5 hPa 0,0 l/m 0 min 0 min 0,0 UV-I 60 W/m 7,7 km/h (2 Bft)
05.04.2013 11:24 2,6 C 2,3 C 80 % 1010,5 hPa 0,0 l/m 0 min 0 min 0,0 UV-I 63 W/m 10,3 km/h (2 Bft)
05.04.2013 11:26 2,6 C 2,3 C 80 % 1010,5 hPa 0,0 l/m 0 min 0 min 0,0 UV-I 63 W/m 10,3 km/h (2 Bft)
05.04.2013 11:30 2,6 C 2,3 C 79 % 1010,5 hPa 0,0 l/m 0 min 0 min 0,0 UV-I 65 W/m 12,9 km/h (3 Bft)
05.04.2013 11:34 2,7 C 2,3 C 79 % 1010,5 hPa 0,0 l/m 0 min 0 min 0,0 UV-I 63 W/m 10,3 km/h (2 Bft)
05.04.2013 11:36 2,7 C 2,3 C 79 % 1010,5 hPa 0,0 l/m 0 min 0 min 0,0 UV-I 63 W/m 0,0 km/h (0 Bft)
05.04.2013 11:38 2,7 C 2,3 C 79 % 1010,5 hPa 0,0 l/m 0 min 0 min 0,0 UV-I 63 W/m 7,7 km/h (2 Bft)
05.04.2013 11:40 2,7 C 2,3 C 79 % 1010,5 hPa 0,0 l/m 0 min 0 min 0,0 UV-I 67 W/m 10,3 km/h (2 Bft)
05.04.2013 11:42 2,7 C 2,3 C 79 % 1010,5 hPa 0,0 l/m 0 min 0 min 0,0 UV-I 65 W/m 5,1 km/h (1 Bft)
05.04.2013 11:44 2,7 C 2,3 C 79 % 1010,5 hPa 0,0 l/m 0 min 0 min 0,0 UV-I 67 W/m 10,3 km/h (2 Bft)
05.04.2013 11:46 2,7 C 2,3 C 79 % 1010,6 hPa 0,0 l/m 0 min 0 min 0,0 UV-I 67 W/m 10,3 km/h (2 Bft)
05.04.2013 11:48 2,7 C 2,3 C 79 % 1010,6 hPa 0,0 l/m 0 min 0 min 0,0 UV-I 69 W/m 5,1 km/h (1 Bft)
05.04.2013 11:50 2,8 C 2,3 C 79 % 1010,6 hPa 0,0 l/m 0 min 0 min 0,0 UV-I 70 W/m 18,0 km/h (3 Bft)
05.04.2013 11:52 2,8 C 2,3 C 79 % 1010,6 hPa 0,0 l/m 0 min 0 min 0,0 UV-I 69 W/m 2,6 km/h (1 Bft)
05.04.2013 11:54 2,8 C 2,3 C 79 % 1010,6 hPa 0,0 l/m 0 min 0 min 0,0 UV-I 67 W/m 20,6 km/h (4 Bft)
05.04.2013 11:56 2,8 C 2,3 C 79 % 1010,6 hPa 0,0 l/m 0 min 0 min 0,0 UV-I 67 W/m 23,2 km/h (4 Bft)
05.04.2013 11:58 2,7 C 2,3 C 79 % 1010,6 hPa 0,0 l/m 0 min 0 min 0,0 UV-I 67 W/m 20,6 km/h (4 Bft)
05.04.2013 12:00 2,7 C 2,3 C 79 % 1010,6 hPa 0,0 l/m 0 min 0 min 0,0 UV-I 67 W/m 0,0 km/h (0 Bft)
05.04.2013 12:02 2,7 C 2,3 C 79 % 1010,6 hPa 0,0 l/m 0 min 0 min 0,0 UV-I 70 W/m 7,7 km/h (2 Bft)
05.04.2013 12:06 2,8 C 2,3 C 79 % 1010,6 hPa 0,0 l/m 0 min 0 min 0,0 UV-I 69 W/m 0,0 km/h (0 Bft)
05.04.2013 12:08 2,8 C 2,3 C 79 % 1010,7 hPa 0,0 l/m 0 min 0 min 0,0 UV-I 65 W/m 5,1 km/h (1 Bft)
05.04.2013 12:10 2,8 C 2,3 C 79 % 1010,7 hPa 0,0 l/m 0 min 0 min 0,0 UV-I 67 W/m 12,9 km/h (3 Bft)
05.04.2013 12:12 2,8 C 2,3 C 79 % 1010,7 hPa 0,0 l/m 0 min 0 min 0,0 UV-I 69 W/m 18,0 km/h (3 Bft)
05.04.2013 12:14 2,8 C 2,3 C 79 % 1010,6 hPa 0,0 l/m 0 min 0 min 0,0 UV-I 69 W/m 10,3 km/h (2 Bft)
05.04.2013 12:16 2,8 C 2,3 C 79 % 1010,7 hPa 0,0 l/m 0 min 0 min 0,0 UV-I 69 W/m 10,3 km/h (2 Bft)
05.04.2013 12:18 2,8 C 2,3 C 79 % 1010,7 hPa 0,0 l/m 0 min 0 min 0,0 UV-I 69 W/m 10,3 km/h (2 Bft)
05.04.2013 12:20 2,8 C 2,3 C 79 % 1010,7 hPa 0,0 l/m 0 min 0 min 0,0 UV-I 67 W/m 15,4 km/h (3 Bft)
05.04.2013 12:22 2,8 C 2,3 C 79 % 1010,7 hPa 0,0 l/m 0 min 0 min 0,0 UV-I 67 W/m 7,7 km/h (2 Bft)
05.04.2013 12:24 2,8 C 2,3 C 79 % 1010,7 hPa 0,0 l/m 0 min 0 min 0,0 UV-I 67 W/m 5,1 km/h (1 Bft)
05.04.2013 12:26 2,8 C 2,9 C 79 % 1010,7 hPa 0,0 l/m 0 min 0 min 0,0 UV-I 65 W/m 10,3 km/h (2 Bft)
05.04.2013 12:28 2,8 C 2,3 C 79 % 1010,7 hPa 0,0 l/m 0 min 0 min 0,0 UV-I 65 W/m 15,4 km/h (3 Bft)
05.04.2013 12:30 2,8 C 2,3 C 79 % 1010,7 hPa 0,0 l/m 0 min 0 min 0,0 UV-I 67 W/m 5,1 km/h (1 Bft)
05.04.2013 12:32 2,8 C 2,3 C 79 % 1010,7 hPa 0,0 l/m 0 min 0 min 0,0 UV-I 65 W/m 7,7 km/h (2 Bft)
05.04.2013 12:34 2,8 C 2,3 C 79 % 1010,7 hPa 0,0 l/m 0 min 0 min 0,0 UV-I 65 W/m 5,1 km/h (1 Bft)
05.04.2013 12:36 2,8 C 2,9 C 79 % 1010,7 hPa 0,0 l/m 0 min 0 min 0,0 UV-I 67 W/m 0,0 km/h (0 Bft)
05.04.2013 12:38 2,8 C 2,9 C 79 % 1010,7 hPa 0,0 l/m 0 min 0 min 0,0 UV-I 67 W/m 7,7 km/h (2 Bft)
05.04.2013 12:40 2,9 C 2,9 C 79 % 1010,7 hPa 0,0 l/m 0 min 0 min 0,0 UV-I 69 W/m 7,7 km/h (2 Bft)
05.04.2013 12:42 2,9 C 2,9 C 79 % 1010,8 hPa 0,0 l/m 0 min 0 min 0,0 UV-I 74 W/m 5,1 km/h (1 Bft)
05.04.2013 12:44 2,9 C 2,9 C 79 % 1010,8 hPa 0,0 l/m 0 min 0 min 0,0 UV-I 79 W/m 5,1 km/h (1 Bft)
05.04.2013 12:46 2,9 C 2,9 C 79 % 1010,7 hPa 0,0 l/m 0 min 0 min 0,0 UV-I 77 W/m 12,9 km/h (3 Bft)
05.04.2013 12:48 2,9 C 2,9 C 79 % 1010,7 hPa 0,0 l/m 0 min 0 min 0,0 UV-I 81 W/m 10,3 km/h (2 Bft)
05.04.2013 12:50 2,9 C 2,9 C 79 % 1010,7 hPa 0,0 l/m 0 min 0 min 0,0 UV-I 79 W/m 7,7 km/h (2 Bft)
05.04.2013 12:52 2,9 C 2,9 C 78 % 1010,8 hPa 0,0 l/m 0 min 0 min 0,0 UV-I 77 W/m 12,9 km/h (3 Bft)
05.04.2013 12:54 2,9 C 2,9 C 78 % 1010,8 hPa 0,0 l/m 0 min 0 min 0,0 UV-I 79 W/m 25,7 km/h (4 Bft)
05.04.2013 12:56 2,9 C 2,3 C 78 % 1010,8 hPa 0,0 l/m 0 min 0 min 0,0 UV-I 84 W/m 23,2 km/h (4 Bft)
05.04.2013 12:58 2,9 C 2,3 C 78 % 1010,8 hPa 0,0 l/m 0 min 0 min 0,0 UV-I 84 W/m 15,4 km/h (3 Bft)
05.04.2013 13:00 2,9 C 2,9 C 78 % 1010,8 hPa 0,0 l/m 0 min 0 min 0,0 UV-I 84 W/m 10,3 km/h (2 Bft)
05.04.2013 13:02 2,9 C 2,9 C 79 % 1010,8 hPa 0,0 l/m 0 min 0 min 0,0 UV-I 86 W/m 5,1 km/h (1 Bft)
05.04.2013 13:04 2,9 C 2,9 C 79 % 1010,8 hPa 0,0 l/m 0 min 0 min 0,0 UV-I 86 W/m 7,7 km/h (2 Bft)
05.04.2013 13:06 3,0 C 2,9 C 79 % 1010,9 hPa 0,0 l/m 0 min 0 min 0,0 UV-I 86 W/m 10,3 km/h (2 Bft)
05.04.2013 13:08 3,0 C 2,9 C 79 % 1010,8 hPa 0,0 l/m 0 min 0 min 0,0 UV-I 86 W/m 7,7 km/h (2 Bft)
05.04.2013 13:10 3,1 C 2,9 C 79 % 1010,9 hPa 0,0 l/m 0 min 0 min 0,0 UV-I 90 W/m 5,1 km/h (1 Bft)
05.04.2013 13:12 3,1 C 2,9 C 79 % 1010,9 hPa 0,0 l/m 0 min 0 min 0,0 UV-I 90 W/m 7,7 km/h (2 Bft)
05.04.2013 13:14 3,1 C 2,9 C 79 % 1010,9 hPa 0,0 l/m 0 min 0 min 0,0 UV-I 91 W/m 2,6 km/h (1 Bft)
05.04.2013 13:16 3,1 C 3,4 C 79 % 1010,8 hPa 0,0 l/m 0 min 0 min 0,0 UV-I 88 W/m 10,3 km/h (2 Bft)
05.04.2013 13:18 3,1 C 2,9 C 78 % 1010,8 hPa 0,0 l/m 0 min 0 min 0,0 UV-I 84 W/m 15,4 km/h (3 Bft)
05.04.2013 13:20 3,1 C 2,9 C 78 % 1010,9 hPa 0,0 l/m 0 min 0 min 0,0 UV-I 84 W/m 12,9 km/h (3 Bft)
05.04.2013 13:22 3,1 C 2,9 C 78 % 1010,9 hPa 0,0 l/m 0 min 0 min 0,0 UV-I 81 W/m 7,7 km/h (2 Bft)
05.04.2013 13:24 3,1 C 2,9 C 78 % 1010,9 hPa 0,0 l/m 0 min 0 min 0,0 UV-I 79 W/m 5,1 km/h (1 Bft)
05.04.2013 13:26 3,1 C 2,9 C 78 % 1010,9 hPa 0,0 l/m 0 min 0 min 0,0 UV-I 77 W/m 12,9 km/h (3 Bft)
05.04.2013 13:28 3,1 C 2,9 C 78 % 1010,8 hPa 0,0 l/m 0 min 0 min 0,0 UV-I 79 W/m 7,7 km/h (2 Bft)
05.04.2013 13:30 3,1 C 2,9 C 78 % 1010,9 hPa 0,0 l/m 0 min 0 min 0,0 UV-I 79 W/m 5,1 km/h (1 Bft)
05.04.2013 13:32 3,1 C 2,9 C 78 % 1010,8 hPa 0,0 l/m 0 min 0 min 0,0 UV-I 81 W/m 5,1 km/h (1 Bft)
05.04.2013 13:34 3,1 C 2,9 C 78 % 1010,9 hPa 0,0 l/m 0 min 0 min 0,0 UV-I 84 W/m 2,6 km/h (1 Bft)
05.04.2013 13:36 3,2 C 2,9 C 78 % 1010,9 hPa 0,0 l/m 0 min 0 min 0,0 UV-I 84 W/m 0,0 km/h (0 Bft)
05.04.2013 13:38 3,2 C 2,9 C 78 % 1010,9 hPa 0,0 l/m 0 min 0 min 0,0 UV-I 86 W/m 0,0 km/h (0 Bft)
05.04.2013 13:40 3,2 C 3,4 C 78 % 1010,9 hPa 0,0 l/m 0 min 0 min 0,0 UV-I 100 W/m 0,0 km/h (0 Bft)
05.04.2013 13:42 3,2 C 3,4 C 79 % 1010,9 hPa 0,0 l/m 0 min 0 min 0,0 UV-I 95 W/m 10,3 km/h (2 Bft)
05.04.2013 13:44 3,2 C 3,4 C 78 % 1010,8 hPa 0,0 l/m 0 min 0 min 0,0 UV-I 93 W/m 7,7 km/h (2 Bft)
05.04.2013 13:46 3,2 C 3,4 C 78 % 1010,9 hPa 0,0 l/m 0 min 0 min 0,0 UV-I 90 W/m 10,3 km/h (2 Bft)
05.04.2013 13:48 3,2 C 2,9 C 78 % 1010,9 hPa 0,0 l/m 0 min 0 min 0,0 UV-I 86 W/m 10,3 km/h (2 Bft)
05.04.2013 13:50 3,2 C 2,9 C 78 % 1010,9 hPa 0,0 l/m 0 min 0 min 0,0 UV-I 86 W/m 10,3 km/h (2 Bft)
05.04.2013 13:52 3,2 C 2,9 C 78 % 1010,8 hPa 0,0 l/m 0 min 0 min 0,0 UV-I 84 W/m 12,9 km/h (3 Bft)
05.04.2013 13:54 3,2 C 2,9 C 78 % 1010,8 hPa 0,0 l/m 0 min 0 min 0,0 UV-I 81 W/m 2,6 km/h (1 Bft)
05.04.2013 13:56 3,2 C 2,9 C 78 % 1010,9 hPa 0,0 l/m 0 min 0 min 0,0 UV-I 81 W/m 5,1 km/h (1 Bft)
05.04.2013 13:58 3,2 C 2,9 C 78 % 1010,9 hPa 0,0 l/m 0 min 0 min 0,0 UV-I 84 W/m 12,9 km/h (3 Bft)
05.04.2013 14:00 3,2 C 2,9 C 78 % 1010,9 hPa 0,0 l/m 0 min 0 min 0,0 UV-I 86 W/m 5,1 km/h (1 Bft)
05.04.2013 14:02 3,3 C 2,9 C 78 % 1011,0 hPa 0,0 l/m 0 min 0 min 0,0 UV-I 91 W/m 7,7 km/h (2 Bft)
05.04.2013 14:04 3,3 C 3,4 C 78 % 1011,0 hPa 0,0 l/m 0 min 0 min 0,0 UV-I 104 W/m 2,6 km/h (1 Bft)
05.04.2013 14:06 3,3 C 3,4 C 78 % 1010,9 hPa 0,0 l/m 0 min 0 min 0,0 UV-I 102 W/m 2,6 km/h (1 Bft)
05.04.2013 14:08 3,3 C 3,4 C 78 % 1010,9 hPa 0,0 l/m 0 min 0 min 0,0 UV-I 107 W/m 0,0 km/h (0 Bft)
05.04.2013 14:10 3,3 C 3,4 C 78 % 1010,9 hPa 0,0 l/m 0 min 0 min 0,0 UV-I 116 W/m 5,1 km/h (1 Bft)
05.04.2013 14:12 3,3 C 4,0 C 78 % 1010,9 hPa 0,0 l/m 0 min 0 min 0,0 UV-I 118 W/m 10,3 km/h (2 Bft)
05.04.2013 14:14 3,4 C 4,0 C 78 % 1010,9 hPa 0,0 l/m 0 min 0 min 0,0 UV-I 111 W/m 5,1 km/h (1 Bft)
05.04.2013 14:16 3,4 C 4,0 C 78 % 1010,9 hPa 0,0 l/m 0 min 0 min 0,0 UV-I 104 W/m 0,0 km/h (0 Bft)
05.04.2013 14:18 3,5 C 4,0 C 77 % 1010,9 hPa 0,0 l/m 0 min 0 min 0,0 UV-I 93 W/m 5,1 km/h (1 Bft)
05.04.2013 14:20 3,5 C 3,4 C 77 % 1010,9 hPa 0,0 l/m 0 min 0 min 0,0 UV-I 90 W/m 7,7 km/h (2 Bft)
05.04.2013 14:22 3,5 C 3,4 C 77 % 1011,0 hPa 0,0 l/m 0 min 0 min 0,0 UV-I 90 W/m 7,7 km/h (2 Bft)
05.04.2013 14:24 3,6 C 3,4 C 77 % 1010,9 hPa 0,0 l/m 0 min 0 min 0,0 UV-I 86 W/m 12,9 km/h (3 Bft)
05.04.2013 14:26 3,6 C 3,4 C 76 % 1010,9 hPa 0,0 l/m 0 min 0 min 0,0 UV-I 90 W/m 7,7 km/h (2 Bft)
05.04.2013 14:28 3,6 C 3,4 C 76 % 1010,9 hPa 0,0 l/m 0 min 0 min 0,0 UV-I 88 W/m 12,9 km/h (3 Bft)
05.04.2013 14:30 3,6 C 3,4 C 76 % 1011,0 hPa 0,0 l/m 0 min 0 min 0,0 UV-I 90 W/m 12,9 km/h (3 Bft)
05.04.2013 14:32 3,6 C 3,4 C 76 % 1010,9 hPa 0,0 l/m 0 min 0 min 0,0 UV-I 102 W/m 12,9 km/h (3 Bft)
05.04.2013 14:34 3,6 C 4,0 C 76 % 1010,9 hPa 0,0 l/m 0 min 0 min 0,0 UV-I 144 W/m 5,1 km/h (1 Bft)
05.04.2013 14:36 3,6 C 4,0 C 76 % 1010,9 hPa 0,0 l/m 0 min 0 min 0,0 UV-I 105 W/m 7,7 km/h (2 Bft)
05.04.2013 14:38 3,7 C 4,0 C 76 % 1011,0 hPa 0,0 l/m 0 min 0 min 0,0 UV-I 105 W/m 7,7 km/h (2 Bft)
05.04.2013 14:40 3,7 C 4,0 C 76 % 1010,9 hPa 0,0 l/m 0 min 0 min 0,0 UV-I 100 W/m 5,1 km/h (1 Bft)
05.04.2013 14:42 3,7 C 4,0 C 76 % 1010,9 hPa 0,0 l/m 0 min 0 min 0,0 UV-I 104 W/m 5,1 km/h (1 Bft)
05.04.2013 14:44 3,7 C 4,0 C 76 % 1010,9 hPa 0,0 l/m 0 min 0 min 0,0 UV-I 102 W/m 5,1 km/h (1 Bft)
05.04.2013 14:46 3,7 C 4,0 C 76 % 1011,0 hPa 0,0 l/m 0 min 0 min 0,0 UV-I 98 W/m 7,7 km/h (2 Bft)
05.04.2013 14:48 3,8 C 4,0 C 77 % 1011,0 hPa 0,0 l/m 0 min 0 min 0,0 UV-I 102 W/m 5,1 km/h (1 Bft)
05.04.2013 14:50 3,8 C 4,0 C 76 % 1011,0 hPa 0,0 l/m 0 min 0 min 0,0 UV-I 105 W/m 10,3 km/h (2 Bft)
05.04.2013 14:52 3,8 C 4,0 C 76 % 1011,0 hPa 0,0 l/m 0 min 0 min 0,0 UV-I 102 W/m 5,1 km/h (1 Bft)
05.04.2013 14:54 3,8 C 4,0 C 76 % 1011,0 hPa 0,0 l/m 0 min 0 min 0,0 UV-I 97 W/m 0,0 km/h (0 Bft)
05.04.2013 14:56 3,9 C 4,0 C 76 % 1011,0 hPa 0,0 l/m 0 min 0 min 0,0 UV-I 90 W/m 7,7 km/h (2 Bft)
05.04.2013 14:58 3,9 C 4,0 C 76 % 1010,9 hPa 0,0 l/m 0 min 0 min 0,0 UV-I 90 W/m 7,7 km/h (2 Bft)
05.04.2013 15:00 3,9 C 3,4 C 76 % 1011,0 hPa 0,0 l/m 0 min 0 min 0,0 UV-I 97 W/m 10,3 km/h (2 Bft)
05.04.2013 15:02 3,8 C 3,4 C 76 % 1011,1 hPa 0,0 l/m 0 min 0 min 0,0 UV-I 98 W/m 12,9 km/h (3 Bft)
05.04.2013 15:06 3,8 C 3,4 C 75 % 1011,1 hPa 0,0 l/m 0 min 0 min 0,0 UV-I 127 W/m 12,9 km/h (3 Bft)
05.04.2013 15:08 3,8 C 4,0 C 76 % 1011,1 hPa 0,0 l/m 0 min 0 min 0,0 UV-I 144 W/m 7,7 km/h (2 Bft)
05.04.2013 15:10 3,8 C 4,0 C 76 % 1011,1 hPa 0,0 l/m 0 min 0 min 0,0 UV-I 156 W/m 15,4 km/h (3 Bft)
05.04.2013 15:12 3,7 C 4,0 C 77 % 1011,0 hPa 0,0 l/m 0 min 0 min 0,0 UV-I 162 W/m 12,9 km/h (3 Bft)
05.04.2013 15:14 3,7 C 4,0 C 77 % 1011,0 hPa 0,0 l/m 0 min 0 min 0,0 UV-I 153 W/m 10,3 km/h (2 Bft)
05.04.2013 15:16 3,7 C 4,0 C 77 % 1011,0 hPa 0,0 l/m 0 min 0 min 0,0 UV-I 149 W/m 5,1 km/h (1 Bft)
05.04.2013 15:18 3,7 C 4,0 C 77 % 1011,0 hPa 0,0 l/m 0 min 0 min 0,0 UV-I 128 W/m 7,7 km/h (2 Bft)
05.04.2013 15:20 3,7 C 4,0 C 77 % 1011,0 hPa 0,0 l/m 0 min 0 min 0,0 UV-I 104 W/m 10,3 km/h (2 Bft)
05.04.2013 15:22 3,7 C 4,0 C 77 % 1011,0 hPa 0,0 l/m 0 min 0 min 0,0 UV-I 97 W/m 7,7 km/h (2 Bft)
05.04.2013 15:24 3,7 C 4,0 C 77 % 1010,9 hPa 0,0 l/m 0 min 0 min 0,0 UV-I 88 W/m 0,0 km/h (0 Bft)
05.04.2013 15:26 3,8 C 4,0 C 77 % 1011,0 hPa 0,0 l/m 0 min 0 min 0,0 UV-I 79 W/m 2,6 km/h (1 Bft)
05.04.2013 15:28 3,8 C 4,0 C 76 % 1010,9 hPa 0,0 l/m 0 min 0 min 0,0 UV-I 77 W/m 5,1 km/h (1 Bft)
05.04.2013 15:30 3,8 C 3,4 C 76 % 1011,0 hPa 0,0 l/m 0 min 0 min 0,0 UV-I 77 W/m 7,7 km/h (2 Bft)
05.04.2013 15:32 3,8 C 3,4 C 76 % 1010,9 hPa 0,0 l/m 0 min 0 min 0,0 UV-I 70 W/m 10,3 km/h (2 Bft)
05.04.2013 15:34 3,8 C 3,4 C 75 % 1011,0 hPa 0,0 l/m 0 min 0 min 0,0 UV-I 77 W/m 2,6 km/h (1 Bft)
05.04.2013 15:36 3,8 C 3,4 C 76 % 1010,9 hPa 0,0 l/m 0 min 0 min 0,0 UV-I 93 W/m 2,6 km/h (1 Bft)
05.04.2013 15:38 3,8 C 4,0 C 76 % 1010,9 hPa 0,0 l/m 0 min 0 min 0,0 UV-I 97 W/m 12,9 km/h (3 Bft)
05.04.2013 15:40 3,8 C 3,4 C 76 % 1010,9 hPa 0,0 l/m 0 min 0 min 0,0 UV-I 93 W/m 18,0 km/h (3 Bft)
05.04.2013 15:42 3,8 C 4,0 C 76 % 1010,9 hPa 0,0 l/m 0 min 0 min 0,0 UV-I 88 W/m 7,7 km/h (2 Bft)
05.04.2013 15:44 3,8 C 4,0 C 76 % 1010,9 hPa 0,0 l/m 0 min 0 min 0,0 UV-I 86 W/m 5,1 km/h (1 Bft)
05.04.2013 15:46 3,8 C 4,0 C 76 % 1010,9 hPa 0,0 l/m 0 min 0 min 0,0 UV-I 83 W/m 7,7 km/h (2 Bft)
05.04.2013 15:48 3,9 C 4,0 C 75 % 1010,9 hPa 0,0 l/m 0 min 0 min 0,0 UV-I 79 W/m 7,7 km/h (2 Bft)
05.04.2013 15:50 3,9 C 4,0 C 76 % 1010,8 hPa 0,0 l/m 0 min 0 min 0,0 UV-I 81 W/m 10,3 km/h (2 Bft)
05.04.2013 15:52 3,9 C 4,0 C 75 % 1010,9 hPa 0,0 l/m 0 min 0 min 0,0 UV-I 83 W/m 10,3 km/h (2 Bft)
05.04.2013 15:54 3,9 C 3,4 C 75 % 1010,8 hPa 0,0 l/m 0 min 0 min 0,0 UV-I 74 W/m 7,7 km/h (2 Bft)
05.04.2013 15:56 3,9 C 3,4 C 75 % 1010,9 hPa 0,0 l/m 0 min 0 min 0,0 UV-I 69 W/m 0,0 km/h (0 Bft)
05.04.2013 15:58 3,9 C 4,0 C 75 % 1010,9 hPa 0,0 l/m 0 min 0 min 0,0 UV-I 69 W/m 2,6 km/h (1 Bft)
05.04.2013 16:00 4,0 C 4,0 C 76 % 1010,9 hPa 0,0 l/m 0 min 0 min 0,0 UV-I 76 W/m 7,7 km/h (2 Bft)
05.04.2013 16:02 4,0 C 4,0 C 76 % 1010,9 hPa 0,0 l/m 0 min 0 min 0,0 UV-I 74 W/m 7,7 km/h (2 Bft)
05.04.2013 16:04 4,0 C 4,0 C 75 % 1010,9 hPa 0,0 l/m 0 min 0 min 0,0 UV-I 76 W/m 18,0 km/h (3 Bft)
05.04.2013 16:06 4,0 C 4,0 C 75 % 1010,9 hPa 0,0 l/m 0 min 0 min 0,0 UV-I 77 W/m 12,9 km/h (3 Bft)
05.04.2013 16:08 4,0 C 4,0 C 75 % 1010,9 hPa 0,0 l/m 0 min 0 min 0,0 UV-I 81 W/m 10,3 km/h (2 Bft)
05.04.2013 16:10 4,0 C 4,0 C 75 % 1010,9 hPa 0,0 l/m 0 min 0 min 0,0 UV-I 77 W/m 10,3 km/h (2 Bft)
05.04.2013 16:12 4,0 C 3,4 C 75 % 1011,0 hPa 0,0 l/m 0 min 0 min 0,0 UV-I 81 W/m 5,1 km/h (1 Bft)
05.04.2013 16:14 4,0 C 4,0 C 75 % 1010,9 hPa 0,0 l/m 0 min 0 min 0,0 UV-I 88 W/m 10,3 km/h (2 Bft)
05.04.2013 16:16 4,1 C 4,0 C 75 % 1010,9 hPa 0,0 l/m 0 min 0 min 0,0 UV-I 81 W/m 5,1 km/h (1 Bft)
05.04.2013 16:18 4,1 C 4,0 C 75 % 1011,0 hPa 0,0 l/m 0 min 0 min 0,0 UV-I 76 W/m 5,1 km/h (1 Bft)
05.04.2013 16:20 4,1 C 4,0 C 75 % 1011,0 hPa 0,0 l/m 0 min 0 min 0,0 UV-I 76 W/m 10,3 km/h (2 Bft)
05.04.2013 16:22 4,1 C 4,0 C 75 % 1010,9 hPa 0,0 l/m 0 min 0 min 0,0 UV-I 77 W/m 5,1 km/h (1 Bft)
05.04.2013 16:24 4,1 C 4,0 C 75 % 1010,9 hPa 0,0 l/m 0 min 0 min 0,0 UV-I 86 W/m 12,9 km/h (3 Bft)
05.04.2013 16:26 4,1 C 4,0 C 75 % 1010,9 hPa 0,0 l/m 0 min 0 min 0,0 UV-I 79 W/m 2,6 km/h (1 Bft)
05.04.2013 16:28 4,1 C 4,0 C 75 % 1011,0 hPa 0,0 l/m 0 min 0 min 0,0 UV-I 72 W/m 0,0 km/h (0 Bft)
05.04.2013 16:30 4,1 C 4,0 C 75 % 1011,1 hPa 0,0 l/m 0 min 0 min 0,0 UV-I 74 W/m 2,6 km/h (1 Bft)
05.04.2013 16:32 4,1 C 4,0 C 76 % 1011,1 hPa 0,0 l/m 0 min 0 min 0,0 UV-I 69 W/m 5,1 km/h (1 Bft)
05.04.2013 16:34 4,1 C 4,0 C 76 % 1011,1 hPa 0,0 l/m 0 min 0 min 0,0 UV-I 67 W/m 0,0 km/h (0 Bft)
05.04.2013 16:36 4,1 C 4,0 C 76 % 1011,1 hPa 0,0 l/m 0 min 0 min 0,0 UV-I 65 W/m 10,3 km/h (2 Bft)
05.04.2013 16:38 4,1 C 4,0 C 76 % 1011,1 hPa 0,0 l/m 0 min 0 min 0,0 UV-I 67 W/m 5,1 km/h (1 Bft)
05.04.2013 16:40 4,1 C 4,0 C 76 % 1011,1 hPa 0,0 l/m 0 min 0 min 0,0 UV-I 74 W/m 2,6 km/h (1 Bft)
05.04.2013 16:42 4,1 C 4,0 C 76 % 1011,1 hPa 0,0 l/m 0 min 0 min 0,0 UV-I 67 W/m 0,0 km/h (0 Bft)
05.04.2013 16:44 4,2 C 4,0 C 76 % 1011,1 hPa 0,0 l/m 0 min 0 min 0,0 UV-I 65 W/m 2,6 km/h (1 Bft)
05.04.2013 16:46 4,2 C 4,0 C 76 % 1011,1 hPa 0,0 l/m 0 min 0 min 0,0 UV-I 67 W/m 0,0 km/h (0 Bft)
05.04.2013 16:48 4,2 C 4,0 C 76 % 1011,2 hPa 0,0 l/m 0 min 0 min 0,0 UV-I 63 W/m 2,6 km/h (1 Bft)
05.04.2013 16:50 4,2 C 4,0 C 76 % 1011,1 hPa 0,0 l/m 0 min 0 min 0,0 UV-I 63 W/m 5,1 km/h (1 Bft)
05.04.2013 16:52 4,2 C 4,0 C 76 % 1011,2 hPa 0,0 l/m 0 min 0 min 0,0 UV-I 69 W/m 2,6 km/h (1 Bft)
05.04.2013 16:54 4,2 C 4,0 C 76 % 1011,2 hPa 0,0 l/m 0 min 0 min 0,0 UV-I 70 W/m 0,0 km/h (0 Bft)
05.04.2013 16:56 4,2 C 4,0 C 76 % 1011,1 hPa 0,0 l/m 0 min 0 min 0,0 UV-I 63 W/m 0,0 km/h (0 Bft)
05.04.2013 16:58 4,3 C 4,0 C 77 % 1011,1 hPa 0,0 l/m 0 min 0 min 0,0 UV-I 56 W/m 0,0 km/h (0 Bft)
05.04.2013 17:00 4,3 C 4,0 C 76 % 1011,2 hPa 0,0 l/m 0 min 0 min 0,0 UV-I 49 W/m 2,6 km/h (1 Bft)
05.04.2013 17:02 4,3 C 4,0 C 76 % 1011,2 hPa 0,0 l/m 0 min 0 min 0,0 UV-I 51 W/m 7,7 km/h (2 Bft)
05.04.2013 17:04 4,3 C 4,0 C 76 % 1011,2 hPa 0,0 l/m 0 min 0 min 0,0 UV-I 51 W/m 0,0 km/h (0 Bft)
05.04.2013 17:06 4,3 C 4,0 C 76 % 1011,1 hPa 0,0 l/m 0 min 0 min 0,0 UV-I 44 W/m 12,9 km/h (3 Bft)
05.04.2013 17:08 4,3 C 4,0 C 76 % 1011,2 hPa 0,0 l/m 0 min 0 min 0,0 UV-I 40 W/m 2,6 km/h (1 Bft)
05.04.2013 17:10 4,3 C 3,4 C 76 % 1011,2 hPa 0,0 l/m 0 min 0 min 0,0 UV-I 42 W/m 0,0 km/h (0 Bft)
05.04.2013 17:12 4,3 C 3,4 C 76 % 1011,2 hPa 0,0 l/m 0 min 0 min 0,0 UV-I 46 W/m 0,0 km/h (0 Bft)
05.04.2013 17:14 4,3 C 3,4 C 76 % 1011,2 hPa 0,0 l/m 0 min 0 min 0,0 UV-I 40 W/m 0,0 km/h (0 Bft)
05.04.2013 17:16 4,3 C 3,4 C 76 % 1011,2 hPa 0,0 l/m 0 min 0 min 0,0 UV-I 39 W/m 7,7 km/h (2 Bft)
05.04.2013 17:18 4,3 C 3,4 C 76 % 1011,2 hPa 0,0 l/m 0 min 0 min 0,0 UV-I 37 W/m 0,0 km/h (0 Bft)
05.04.2013 17:20 4,2 C 3,4 C 76 % 1011,3 hPa 0,0 l/m 0 min 0 min 0,0 UV-I 32 W/m 5,1 km/h (1 Bft)
05.04.2013 17:22 4,2 C 3,4 C 76 % 1011,3 hPa 0,0 l/m 0 min 0 min 0,0 UV-I 32 W/m 5,1 km/h (1 Bft)
05.04.2013 17:24 4,2 C 3,4 C 76 % 1011,3 hPa 0,0 l/m 0 min 0 min 0,0 UV-I 32 W/m 2,6 km/h (1 Bft)
05.04.2013 17:26 4,2 C 3,4 C 76 % 1011,3 hPa 0,0 l/m 0 min 0 min 0,0 UV-I 32 W/m 7,7 km/h (2 Bft)
05.04.2013 17:28 4,2 C 3,4 C 76 % 1011,3 hPa 0,0 l/m 0 min 0 min 0,0 UV-I 30 W/m 7,7 km/h (2 Bft)
05.04.2013 17:30 4,2 C 3,4 C 76 % 1011,4 hPa 0,0 l/m 0 min 0 min 0,0 UV-I 32 W/m 5,1 km/h (1 Bft)
05.04.2013 17:32 4,2 C 3,4 C 76 % 1011,3 hPa 0,0 l/m 0 min 0 min 0,0 UV-I 33 W/m 0,0 km/h (0 Bft)
05.04.2013 17:34 4,2 C 3,4 C 76 % 1011,3 hPa 0,0 l/m 0 min 0 min 0,0 UV-I 37 W/m 5,1 km/h (1 Bft)
05.04.2013 17:36 4,1 C 3,4 C 76 % 1011,4 hPa 0,0 l/m 0 min 0 min 0,0 UV-I 33 W/m 5,1 km/h (1 Bft)
05.04.2013 17:38 4,1 C 3,4 C 76 % 1011,4 hPa 0,0 l/m 0 min 0 min 0,0 UV-I 30 W/m 0,0 km/h (0 Bft)
05.04.2013 17:40 4,1 C 3,4 C 76 % 1011,4 hPa 0,0 l/m 0 min 0 min 0,0 UV-I 26 W/m 0,0 km/h (0 Bft)
05.04.2013 17:42 4,1 C 3,4 C 76 % 1011,5 hPa 0,0 l/m 0 min 0 min 0,0 UV-I 33 W/m 0,0 km/h (0 Bft)
05.04.2013 17:44 4,1 C 3,4 C 77 % 1011,4 hPa 0,0 l/m 0 min 0 min 0,0 UV-I 37 W/m 7,7 km/h (2 Bft)
05.04.2013 17:46 4,1 C 3,4 C 77 % 1011,4 hPa 0,0 l/m 0 min 0 min 0,0 UV-I 47 W/m 0,0 km/h (0 Bft)
05.04.2013 17:48 4,2 C 3,4 C 77 % 1011,4 hPa 0,0 l/m 0 min 0 min 0,0 UV-I 49 W/m 0,0 km/h (0 Bft)
05.04.2013 17:50 4,2 C 3,4 C 77 % 1011,4 hPa 0,0 l/m 0 min 0 min 0,0 UV-I 42 W/m 7,7 km/h (2 Bft)
05.04.2013 17:52 4,2 C 3,4 C 77 % 1011,4 hPa 0,0 l/m 0 min 0 min 0,0 UV-I 37 W/m 0,0 km/h (0 Bft)
05.04.2013 17:54 4,2 C 3,4 C 77 % 1011,4 hPa 0,0 l/m 0 min 0 min 0,0 UV-I 33 W/m 2,6 km/h (1 Bft)
05.04.2013 17:56 4,2 C 3,4 C 77 % 1011,4 hPa 0,0 l/m 0 min 0 min 0,0 UV-I 32 W/m 0,0 km/h (0 Bft)
05.04.2013 17:58 4,2 C 3,4 C 77 % 1011,4 hPa 0,0 l/m 0 min 0 min 0,0 UV-I 28 W/m 2,6 km/h (1 Bft)
05.04.2013 18:00 4,2 C 3,4 C 77 % 1011,5 hPa 0,0 l/m 0 min 0 min 0,0 UV-I 26 W/m 0,0 km/h (0 Bft)
05.04.2013 18:02 4,2 C 3,4 C 77 % 1011,5 hPa 0,0 l/m 0 min 0 min 0,0 UV-I 25 W/m 0,0 km/h (0 Bft)
05.04.2013 18:06 4,2 C 3,4 C 77 % 1011,5 hPa 0,0 l/m 0 min 0 min 0,0 UV-I 21 W/m 5,1 km/h (1 Bft)
05.04.2013 18:08 4,2 C 3,4 C 77 % 1011,5 hPa 0,0 l/m 0 min 0 min 0,0 UV-I 23 W/m 2,6 km/h (1 Bft)
05.04.2013 18:10 4,2 C 3,4 C 77 % 1011,6 hPa 0,0 l/m 0 min 0 min 0,0 UV-I 23 W/m 2,6 km/h (1 Bft)
05.04.2013 18:12 4,2 C 3,4 C 77 % 1011,6 hPa 0,0 l/m 0 min 0 min 0,0 UV-I 23 W/m 0,0 km/h (0 Bft)
05.04.2013 18:14 4,2 C 3,4 C 77 % 1011,6 hPa 0,0 l/m 0 min 0 min 0,0 UV-I 25 W/m 5,1 km/h (1 Bft)
05.04.2013 18:16 4,2 C 3,4 C 77 % 1011,6 hPa 0,0 l/m 0 min 0 min 0,0 UV-I 21 W/m 2,6 km/h (1 Bft)
05.04.2013 18:18 4,2 C 3,4 C 77 % 1011,6 hPa 0,0 l/m 0 min 0 min 0,0 UV-I 23 W/m 7,7 km/h (2 Bft)
05.04.2013 18:20 4,2 C 3,4 C 77 % 1011,6 hPa 0,0 l/m 0 min 0 min 0,0 UV-I 25 W/m 2,6 km/h (1 Bft)
05.04.2013 18:22 4,2 C 3,4 C 77 % 1011,6 hPa 0,0 l/m 0 min 0 min 0,0 UV-I 23 W/m 0,0 km/h (0 Bft)
05.04.2013 18:24 4,2 C 3,4 C 77 % 1011,6 hPa 0,0 l/m 0 min 0 min 0,0 UV-I 21 W/m 0,0 km/h (0 Bft)
05.04.2013 18:26 4,2 C 3,4 C 77 % 1011,6 hPa 0,0 l/m 0 min 0 min 0,0 UV-I 19 W/m 2,6 km/h (1 Bft)
05.04.2013 18:28 4,2 C 3,4 C 77 % 1011,6 hPa 0,0 l/m 0 min 0 min 0,0 UV-I 19 W/m 2,6 km/h (1 Bft)
05.04.2013 18:30 4,2 C 3,4 C 77 % 1011,6 hPa 0,0 l/m 0 min 0 min 0,0 UV-I 19 W/m 5,1 km/h (1 Bft)
05.04.2013 18:32 4,2 C 3,4 C 77 % 1011,7 hPa 0,0 l/m 0 min 0 min 0,0 UV-I 19 W/m 7,7 km/h (2 Bft)
05.04.2013 18:34 4,2 C 3,4 C 77 % 1011,7 hPa 0,0 l/m 0 min 0 min 0,0 UV-I 19 W/m 0,0 km/h (0 Bft)
05.04.2013 18:36 4,2 C 3,4 C 77 % 1011,7 hPa 0,0 l/m 0 min 0 min 0,0 UV-I 19 W/m 7,7 km/h (2 Bft)
05.04.2013 18:38 4,2 C 3,4 C 77 % 1011,7 hPa 0,0 l/m 0 min 0 min 0,0 UV-I 19 W/m 0,0 km/h (0 Bft)
05.04.2013 18:40 4,2 C 3,4 C 77 % 1011,7 hPa 0,0 l/m 0 min 0 min 0,0 UV-I 19 W/m 0,0 km/h (0 Bft)
05.04.2013 18:42 4,2 C 3,4 C 77 % 1011,7 hPa 0,0 l/m 0 min 0 min 0,0 UV-I 18 W/m 2,6 km/h (1 Bft)
05.04.2013 18:44 4,2 C 3,4 C 77 % 1011,7 hPa 0,0 l/m 0 min 0 min 0,0 UV-I 16 W/m 0,0 km/h (0 Bft)
05.04.2013 18:46 4,2 C 3,4 C 77 % 1011,8 hPa 0,0 l/m 0 min 0 min 0,0 UV-I 14 W/m 0,0 km/h (0 Bft)
05.04.2013 18:48 4,2 C 3,4 C 77 % 1011,7 hPa 0,0 l/m 0 min 0 min 0,0 UV-I 14 W/m 2,6 km/h (1 Bft)
05.04.2013 18:50 4,2 C 3,4 C 77 % 1011,8 hPa 0,0 l/m 0 min 0 min 0,0 UV-I 14 W/m 0,0 km/h (0 Bft)
05.04.2013 18:52 4,2 C 3,4 C 77 % 1011,8 hPa 0,0 l/m 0 min 0 min 0,0 UV-I 14 W/m 7,7 km/h (2 Bft)
05.04.2013 18:54 4,2 C 3,4 C 77 % 1011,8 hPa 0,0 l/m 0 min 0 min 0,0 UV-I 14 W/m 0,0 km/h (0 Bft)
05.04.2013 18:56 4,2 C 3,4 C 77 % 1011,7 hPa 0,0 l/m 0 min 0 min 0,0 UV-I 14 W/m 2,6 km/h (1 Bft)
05.04.2013 18:58 4,2 C 3,4 C 77 % 1011,8 hPa 0,0 l/m 0 min 0 min 0,0 UV-I 14 W/m 7,7 km/h (2 Bft)
05.04.2013 19:00 4,2 C 3,4 C 77 % 1011,7 hPa 0,0 l/m 0 min 0 min 0,0 UV-I 14 W/m 5,1 km/h (1 Bft)
05.04.2013 19:02 4,2 C 3,4 C 77 % 1011,8 hPa 0,0 l/m 0 min 0 min 0,0 UV-I 14 W/m 10,3 km/h (2 Bft)
05.04.2013 19:04 4,1 C 3,4 C 77 % 1011,8 hPa 0,0 l/m 0 min 0 min 0,0 UV-I 12 W/m 2,6 km/h (1 Bft)
05.04.2013 19:06 4,1 C 3,4 C 77 % 1011,9 hPa 0,0 l/m 0 min 0 min 0,0 UV-I 12 W/m 0,0 km/h (0 Bft)
05.04.2013 19:08 4,2 C 3,4 C 77 % 1011,8 hPa 0,0 l/m 0 min 0 min 0,0 UV-I 12 W/m 0,0 km/h (0 Bft)
05.04.2013 19:10 4,2 C 3,4 C 78 % 1011,9 hPa 0,0 l/m 0 min 0 min 0,0 UV-I 14 W/m 0,0 km/h (0 Bft)
05.04.2013 19:12 4,1 C 3,4 C 77 % 1011,9 hPa 0,0 l/m 0 min 0 min 0,0 UV-I 12 W/m 0,0 km/h (0 Bft)
05.04.2013 19:14 4,1 C 2,9 C 78 % 1011,9 hPa 0,0 l/m 0 min 0 min 0,0 UV-I 12 W/m 0,0 km/h (0 Bft)
05.04.2013 19:16 4,1 C 2,9 C 78 % 1012,0 hPa 0,0 l/m 0 min 0 min 0,0 UV-I 12 W/m 0,0 km/h (0 Bft)
05.04.2013 19:18 4,1 C 2,9 C 78 % 1012,0 hPa 0,0 l/m 0 min 0 min 0,0 UV-I 11 W/m 0,0 km/h (0 Bft)
05.04.2013 19:20 4,1 C 2,9 C 78 % 1011,9 hPa 0,0 l/m 0 min 0 min 0,0 UV-I 11 W/m 2,6 km/h (1 Bft)
05.04.2013 19:22 4,1 C 2,9 C 78 % 1012,0 hPa 0,0 l/m 0 min 0 min 0,0 UV-I 11 W/m 0,0 km/h (0 Bft)
05.04.2013 19:24 4,1 C 2,9 C 78 % 1012,0 hPa 0,0 l/m 0 min 0 min 0,0 UV-I 9 W/m 0,0 km/h (0 Bft)
05.04.2013 19:26 4,1 C 2,9 C 78 % 1012,0 hPa 0,0 l/m 0 min 0 min 0,0 UV-I 9 W/m 0,0 km/h (0 Bft)
05.04.2013 19:28 4,1 C 2,9 C 78 % 1012,0 hPa 0,0 l/m 0 min 0 min 0,0 UV-I 9 W/m 0,0 km/h (0 Bft)
05.04.2013 19:30 4,1 C 2,9 C 78 % 1012,0 hPa 0,0 l/m 0 min 0 min 0,0 UV-I 9 W/m 0,0 km/h (0 Bft)
05.04.2013 19:32 4,1 C 2,9 C 78 % 1012,1 hPa 0,0 l/m 0 min 0 min 0,0 UV-I 7 W/m 2,6 km/h (1 Bft)
05.04.2013 19:34 4,1 C 2,9 C 78 % 1012,1 hPa 0,0 l/m 0 min 0 min 0,0 UV-I 7 W/m 0,0 km/h (0 Bft)
05.04.2013 19:36 4,1 C 2,9 C 78 % 1012,1 hPa 0,0 l/m 0 min 0 min 0,0 UV-I 7 W/m 0,0 km/h (0 Bft)
05.04.2013 19:38 4,1 C 2,9 C 78 % 1012,2 hPa 0,0 l/m 0 min 0 min 0,0 UV-I 7 W/m 0,0 km/h (0 Bft)
05.04.2013 19:40 4,1 C 2,9 C 78 % 1012,2 hPa 0,0 l/m 0 min 0 min 0,0 UV-I 5 W/m 0,0 km/h (0 Bft)
05.04.2013 19:42 4,1 C 2,9 C 78 % 1012,1 hPa 0,0 l/m 0 min 0 min 0,0 UV-I 5 W/m 0,0 km/h (0 Bft)
05.04.2013 19:44 4,1 C 2,9 C 78 % 1012,1 hPa 0,0 l/m 0 min 0 min 0,0 UV-I 5 W/m 0,0 km/h (0 Bft)
05.04.2013 19:46 4,1 C 2,9 C 78 % 1012,2 hPa 0,0 l/m 0 min 0 min 0,0 UV-I 5 W/m 0,0 km/h (0 Bft)
05.04.2013 19:48 4,1 C 2,9 C 78 % 1012,2 hPa 0,0 l/m 0 min 0 min 0,0 UV-I 0 W/m 0,0 km/h (0 Bft)
05.04.2013 19:50 4,1 C 2,9 C 78 % 1012,2 hPa 0,0 l/m 0 min 0 min 0,0 UV-I 0 W/m 0,0 km/h (0 Bft)
05.04.2013 19:52 4,1 C 2,9 C 78 % 1012,2 hPa 0,0 l/m 0 min 0 min 0,0 UV-I 0 W/m 0,0 km/h (0 Bft)
05.04.2013 19:54 4,1 C 2,9 C 78 % 1012,3 hPa 0,0 l/m 0 min 0 min 0,0 UV-I 0 W/m 0,0 km/h (0 Bft)
05.04.2013 19:56 4,1 C 2,9 C 78 % 1012,3 hPa 0,0 l/m 0 min 0 min 0,0 UV-I 0 W/m 0,0 km/h (0 Bft)
05.04.2013 19:58 4,0 C 2,9 C 78 % 1012,3 hPa 0,0 l/m 0 min 0 min 0,0 UV-I 0 W/m 0,0 km/h (0 Bft)
05.04.2013 20:00 4,0 C 2,9 C 78 % 1012,4 hPa 0,0 l/m 0 min 0 min 0,0 UV-I 0 W/m 0,0 km/h (0 Bft)
05.04.2013 20:02 4,0 C 2,9 C 78 % 1012,4 hPa 0,0 l/m 0 min 0 min 0,0 UV-I 0 W/m 0,0 km/h (0 Bft)
05.04.2013 20:04 4,0 C 2,9 C 78 % 1012,4 hPa 0,0 l/m 0 min 0 min 0,0 UV-I 0 W/m 0,0 km/h (0 Bft)
05.04.2013 20:06 4,0 C 2,9 C 78 % 1012,4 hPa 0,0 l/m 0 min 0 min 0,0 UV-I 0 W/m 0,0 km/h (0 Bft)
05.04.2013 20:08 3,9 C 2,9 C 78 % 1012,4 hPa 0,0 l/m 0 min 0 min 0,0 UV-I 0 W/m 0,0 km/h (0 Bft)
05.04.2013 20:10 3,9 C 2,9 C 78 % 1012,5 hPa 0,0 l/m 0 min 0 min 0,0 UV-I 0 W/m 0,0 km/h (0 Bft)
05.04.2013 20:12 3,9 C 2,9 C 78 % 1012,5 hPa 0,0 l/m 0 min 0 min 0,0 UV-I 0 W/m 0,0 km/h (0 Bft)
05.04.2013 20:14 3,9 C 2,9 C 78 % 1012,5 hPa 0,0 l/m 0 min 0 min 0,0 UV-I 0 W/m 0,0 km/h (0 Bft)
05.04.2013 20:16 3,9 C 2,9 C 78 % 1012,6 hPa 0,0 l/m 0 min 0 min 0,0 UV-I 0 W/m 0,0 km/h (0 Bft)
05.04.2013 20:18 3,9 C 2,9 C 78 % 1012,6 hPa 0,0 l/m 0 min 0 min 0,0 UV-I 0 W/m 0,0 km/h (0 Bft)
05.04.2013 20:20 3,9 C 2,9 C 78 % 1012,6 hPa 0,0 l/m 0 min 0 min 0,0 UV-I 0 W/m 0,0 km/h (0 Bft)
05.04.2013 20:22 3,9 C 2,9 C 78 % 1012,6 hPa 0,0 l/m 0 min 0 min 0,0 UV-I 0 W/m 2,6 km/h (1 Bft)
05.04.2013 20:24 3,9 C 2,9 C 78 % 1012,6 hPa 0,0 l/m 0 min 0 min 0,0 UV-I 0 W/m 2,6 km/h (1 Bft)
05.04.2013 20:26 3,9 C 2,9 C 78 % 1012,8 hPa 0,0 l/m 0 min 0 min 0,0 UV-I 0 W/m 0,0 km/h (0 Bft)
05.04.2013 20:28 3,9 C 2,9 C 79 % 1012,8 hPa 0,0 l/m 0 min 0 min 0,0 UV-I 0 W/m 0,0 km/h (0 Bft)
05.04.2013 20:30 3,8 C 2,9 C 79 % 1012,8 hPa 0,0 l/m 0 min 0 min 0,0 UV-I 0 W/m 0,0 km/h (0 Bft)
05.04.2013 20:32 3,8 C 2,9 C 79 % 1012,9 hPa 0,0 l/m 0 min 0 min 0,0 UV-I 0 W/m 0,0 km/h (0 Bft)
05.04.2013 20:34 3,8 C 2,9 C 79 % 1012,9 hPa 0,0 l/m 0 min 0 min 0,0 UV-I 0 W/m 0,0 km/h (0 Bft)
05.04.2013 20:36 3,8 C 2,9 C 79 % 1013,0 hPa 0,0 l/m 0 min 0 min 0,0 UV-I 0 W/m 0,0 km/h (0 Bft)
05.04.2013 20:38 3,8 C 2,9 C 79 % 1013,1 hPa 0,0 l/m 0 min 0 min 0,0 UV-I 0 W/m 2,6 km/h (1 Bft)
05.04.2013 20:40 3,8 C 2,9 C 79 % 1013,0 hPa 0,0 l/m 0 min 0 min 0,0 UV-I 0 W/m 5,1 km/h (1 Bft)
05.04.2013 20:42 3,8 C 2,9 C 79 % 1013,1 hPa 0,0 l/m 0 min 0 min 0,0 UV-I 0 W/m 0,0 km/h (0 Bft)
05.04.2013 20:44 3,8 C 2,9 C 79 % 1013,1 hPa 0,0 l/m 0 min 0 min 0,0 UV-I 0 W/m 2,6 km/h (1 Bft)
05.04.2013 20:46 3,8 C 2,9 C 79 % 1013,2 hPa 0,0 l/m 0 min 0 min 0,0 UV-I 0 W/m 7,7 km/h (2 Bft)
05.04.2013 20:48 3,8 C 2,9 C 79 % 1013,2 hPa 0,0 l/m 0 min 0 min 0,0 UV-I 0 W/m 5,1 km/h (1 Bft)
05.04.2013 20:50 3,8 C 2,9 C 79 % 1013,2 hPa 0,0 l/m 0 min 0 min 0,0 UV-I 0 W/m 5,1 km/h (1 Bft)
05.04.2013 20:52 3,8 C 2,9 C 79 % 1013,3 hPa 0,0 l/m 0 min 0 min 0,0 UV-I 0 W/m 0,0 km/h (0 Bft)
05.04.2013 20:54 3,8 C 2,9 C 79 % 1013,2 hPa 0,0 l/m 0 min 0 min 0,0 UV-I 0 W/m 0,0 km/h (0 Bft)
05.04.2013 20:56 3,8 C 2,3 C 79 % 1013,2 hPa 0,0 l/m 0 min 0 min 0,0 UV-I 0 W/m 5,1 km/h (1 Bft)
05.04.2013 20:58 3,8 C 2,3 C 79 % 1013,3 hPa 0,0 l/m 0 min 0 min 0,0 UV-I 0 W/m 2,6 km/h (1 Bft)
05.04.2013 21:00 3,8 C 2,3 C 79 % 1013,3 hPa 0,0 l/m 0 min 0 min 0,0 UV-I 0 W/m 5,1 km/h (1 Bft)
05.04.2013 21:02 3,8 C 2,3 C 79 % 1013,3 hPa 0,0 l/m 0 min 0 min 0,0 UV-I 0 W/m 5,1 km/h (1 Bft)
05.04.2013 21:06 3,7 C 2,3 C 80 % 1013,4 hPa 0,0 l/m 0 min 0 min 0,0 UV-I 0 W/m 0,0 km/h (0 Bft)
05.04.2013 21:08 3,7 C 2,3 C 80 % 1013,4 hPa 0,0 l/m 0 min 0 min 0,0 UV-I 0 W/m 5,1 km/h (1 Bft)
05.04.2013 21:10 3,7 C 2,3 C 80 % 1013,5 hPa 0,0 l/m 0 min 0 min 0,0 UV-I 0 W/m 0,0 km/h (0 Bft)
05.04.2013 21:12 3,7 C 2,3 C 80 % 1013,5 hPa 0,0 l/m 0 min 0 min 0,0 UV-I 0 W/m 2,6 km/h (1 Bft)
05.04.2013 21:14 3,7 C 2,3 C 80 % 1013,6 hPa 0,0 l/m 0 min 0 min 0,0 UV-I 0 W/m 5,1 km/h (1 Bft)
05.04.2013 21:16 3,7 C 2,3 C 80 % 1013,6 hPa 0,0 l/m 0 min 0 min 0,0 UV-I 0 W/m 5,1 km/h (1 Bft)
05.04.2013 21:18 3,7 C 2,3 C 80 % 1013,6 hPa 0,0 l/m 0 min 0 min 0,0 UV-I 0 W/m 2,6 km/h (1 Bft)
05.04.2013 21:20 3,7 C 2,3 C 80 % 1013,7 hPa 0,0 l/m 0 min 0 min 0,0 UV-I 0 W/m 2,6 km/h (1 Bft)
05.04.2013 21:22 3,7 C 2,3 C 80 % 1013,7 hPa 0,0 l/m 0 min 0 min 0,0 UV-I 0 W/m 0,0 km/h (0 Bft)
05.04.2013 21:24 3,7 C 2,3 C 80 % 1013,7 hPa 0,0 l/m 0 min 0 min 0,0 UV-I 0 W/m 0,0 km/h (0 Bft)
05.04.2013 21:26 3,7 C 2,3 C 80 % 1013,7 hPa 0,0 l/m 0 min 0 min 0,0 UV-I 0 W/m 0,0 km/h (0 Bft)
05.04.2013 21:28 3,7 C 2,3 C 80 % 1013,7 hPa 0,0 l/m 0 min 0 min 0,0 UV-I 0 W/m 2,6 km/h (1 Bft)
05.04.2013 21:30 3,7 C 2,3 C 80 % 1013,9 hPa 0,0 l/m 0 min 0 min 0,0 UV-I 0 W/m 0,0 km/h (0 Bft)
05.04.2013 21:32 3,7 C 2,3 C 80 % 1013,8 hPa 0,0 l/m 0 min 0 min 0,0 UV-I 0 W/m 0,0 km/h (0 Bft)
05.04.2013 21:34 3,7 C 2,3 C 80 % 1013,9 hPa 0,0 l/m 0 min 0 min 0,0 UV-I 0 W/m 0,0 km/h (0 Bft)
05.04.2013 21:36 3,7 C 2,3 C 80 % 1013,9 hPa 0,0 l/m 0 min 0 min 0,0 UV-I 0 W/m 0,0 km/h (0 Bft)
05.04.2013 21:38 3,6 C 2,3 C 80 % 1013,9 hPa 0,0 l/m 0 min 0 min 0,0 UV-I 0 W/m 0,0 km/h (0 Bft)
05.04.2013 21:40 3,6 C 2,3 C 80 % 1013,9 hPa 0,0 l/m 0 min 0 min 0,0 UV-I 0 W/m 2,6 km/h (1 Bft)
05.04.2013 21:42 3,6 C 2,3 C 80 % 1013,9 hPa 0,0 l/m 0 min 0 min 0,0 UV-I 0 W/m 0,0 km/h (0 Bft)
05.04.2013 21:44 3,6 C 2,3 C 81 % 1014,0 hPa 0,0 l/m 0 min 0 min 0,0 UV-I 0 W/m 0,0 km/h (0 Bft)
05.04.2013 21:46 3,6 C 2,3 C 81 % 1014,0 hPa 0,0 l/m 0 min 0 min 0,0 UV-I 0 W/m 0,0 km/h (0 Bft)
05.04.2013 21:48 3,6 C 2,3 C 81 % 1014,0 hPa 0,0 l/m 0 min 0 min 0,0 UV-I 0 W/m 2,6 km/h (1 Bft)
05.04.2013 21:50 3,6 C 2,3 C 81 % 1014,1 hPa 0,0 l/m 0 min 0 min 0,0 UV-I 0 W/m 0,0 km/h (0 Bft)
05.04.2013 21:52 3,6 C 2,3 C 81 % 1014,1 hPa 0,0 l/m 0 min 0 min 0,0 UV-I 0 W/m 0,0 km/h (0 Bft)
05.04.2013 21:54 3,6 C 2,3 C 81 % 1014,2 hPa 0,0 l/m 0 min 0 min 0,0 UV-I 0 W/m 0,0 km/h (0 Bft)
05.04.2013 21:56 3,6 C 2,3 C 81 % 1014,2 hPa 0,0 l/m 0 min 0 min 0,0 UV-I 0 W/m 0,0 km/h (0 Bft)
05.04.2013 21:58 3,6 C 2,3 C 81 % 1014,2 hPa 0,0 l/m 0 min 0 min 0,0 UV-I 0 W/m 2,6 km/h (1 Bft)
05.04.2013 22:00 3,6 C 2,3 C 81 % 1014,3 hPa 0,0 l/m 0 min 0 min 0,0 UV-I 0 W/m 0,0 km/h (0 Bft)
05.04.2013 22:02 3,6 C 2,3 C 81 % 1014,2 hPa 0,0 l/m 0 min 0 min 0,0 UV-I 0 W/m 0,0 km/h (0 Bft)
05.04.2013 22:04 3,6 C 2,3 C 81 % 1014,1 hPa 0,0 l/m 0 min 0 min 0,0 UV-I 0 W/m 0,0 km/h (0 Bft)
05.04.2013 22:06 3,6 C 2,3 C 81 % 1014,2 hPa 0,0 l/m 0 min 0 min 0,0 UV-I 0 W/m 0,0 km/h (0 Bft)
05.04.2013 22:08 3,6 C 2,3 C 81 % 1014,2 hPa 0,0 l/m 0 min 0 min 0,0 UV-I 0 W/m 0,0 km/h (0 Bft)
05.04.2013 22:10 3,5 C 2,3 C 81 % 1014,2 hPa 0,0 l/m 0 min 0 min 0,0 UV-I 0 W/m 0,0 km/h (0 Bft)
05.04.2013 22:12 3,5 C 2,3 C 81 % 1014,2 hPa 0,0 l/m 0 min 0 min 0,0 UV-I 0 W/m 0,0 km/h (0 Bft)
05.04.2013 22:14 3,5 C 2,3 C 81 % 1014,3 hPa 0,0 l/m 0 min 0 min 0,0 UV-I 0 W/m 0,0 km/h (0 Bft)
05.04.2013 22:16 3,5 C 2,3 C 81 % 1014,3 hPa 0,0 l/m 0 min 0 min 0,0 UV-I 0 W/m 0,0 km/h (0 Bft)
05.04.2013 22:18 3,5 C 2,3 C 81 % 1014,3 hPa 0,0 l/m 0 min 0 min 0,0 UV-I 0 W/m 0,0 km/h (0 Bft)
05.04.2013 22:20 3,5 C 2,3 C 81 % 1014,4 hPa 0,0 l/m 0 min 0 min 0,0 UV-I 0 W/m 0,0 km/h (0 Bft)
05.04.2013 22:22 3,5 C 2,3 C 81 % 1014,3 hPa 0,0 l/m 0 min 0 min 0,0 UV-I 0 W/m 0,0 km/h (0 Bft)
05.04.2013 22:24 3,5 C 2,3 C 81 % 1014,3 hPa 0,0 l/m 0 min 0 min 0,0 UV-I 0 W/m 2,6 km/h (1 Bft)
05.04.2013 22:26 3,5 C 2,3 C 81 % 1014,3 hPa 0,0 l/m 0 min 0 min 0,0 UV-I 0 W/m 2,6 km/h (1 Bft)
05.04.2013 22:28 3,4 C 2,3 C 82 % 1014,3 hPa 0,0 l/m 0 min 0 min 0,0 UV-I 0 W/m 0,0 km/h (0 Bft)
05.04.2013 22:30 3,5 C 2,3 C 82 % 1014,4 hPa 0,0 l/m 0 min 0 min 0,0 UV-I 0 W/m 0,0 km/h (0 Bft)
05.04.2013 22:32 3,4 C 2,3 C 82 % 1014,4 hPa 0,0 l/m 0 min 0 min 0,0 UV-I 0 W/m 0,0 km/h (0 Bft)
05.04.2013 22:34 3,4 C 2,3 C 82 % 1014,4 hPa 0,0 l/m 0 min 0 min 0,0 UV-I 0 W/m 0,0 km/h (0 Bft)
05.04.2013 22:36 3,4 C 2,3 C 82 % 1014,4 hPa 0,0 l/m 0 min 0 min 0,0 UV-I 0 W/m 0,0 km/h (0 Bft)
05.04.2013 22:38 3,4 C 2,3 C 82 % 1014,4 hPa 0,0 l/m 0 min 0 min 0,0 UV-I 0 W/m 0,0 km/h (0 Bft)
05.04.2013 22:40 3,4 C 2,3 C 82 % 1014,4 hPa 0,0 l/m 0 min 0 min 0,0 UV-I 0 W/m 2,6 km/h (1 Bft)
05.04.2013 22:42 3,4 C 2,3 C 82 % 1014,5 hPa 0,0 l/m 0 min 0 min 0,0 UV-I 0 W/m 7,7 km/h (2 Bft)
05.04.2013 22:44 3,4 C 2,3 C 82 % 1014,5 hPa 0,0 l/m 0 min 0 min 0,0 UV-I 0 W/m 5,1 km/h (1 Bft)
05.04.2013 22:46 3,4 C 2,3 C 82 % 1014,5 hPa 0,0 l/m 0 min 0 min 0,0 UV-I 0 W/m 2,6 km/h (1 Bft)
05.04.2013 22:48 3,4 C 2,3 C 82 % 1014,5 hPa 0,0 l/m 0 min 0 min 0,0 UV-I 0 W/m 0,0 km/h (0 Bft)
05.04.2013 22:50 3,4 C 2,3 C 82 % 1014,5 hPa 0,0 l/m 0 min 0 min 0,0 UV-I 0 W/m 0,0 km/h (0 Bft)
05.04.2013 22:52 3,4 C 2,3 C 82 % 1014,5 hPa 0,0 l/m 0 min 0 min 0,0 UV-I 0 W/m 5,1 km/h (1 Bft)
05.04.2013 22:54 3,4 C 2,3 C 82 % 1014,4 hPa 0,0 l/m 0 min 0 min 0,0 UV-I 0 W/m 7,7 km/h (2 Bft)
05.04.2013 22:56 3,4 C 2,3 C 82 % 1014,5 hPa 0,0 l/m 0 min 0 min 0,0 UV-I 0 W/m 0,0 km/h (0 Bft)
05.04.2013 22:58 3,4 C 2,3 C 82 % 1014,5 hPa 0,0 l/m 0 min 0 min 0,0 UV-I 0 W/m 0,0 km/h (0 Bft)
05.04.2013 23:00 3,4 C 2,3 C 82 % 1014,5 hPa 0,0 l/m 0 min 0 min 0,0 UV-I 0 W/m 0,0 km/h (0 Bft)
05.04.2013 23:02 3,3 C 2,3 C 82 % 1014,5 hPa 0,0 l/m 0 min 0 min 0,0 UV-I 0 W/m 2,6 km/h (1 Bft)
05.04.2013 23:04 3,3 C 2,3 C 82 % 1014,5 hPa 0,0 l/m 0 min 0 min 0,0 UV-I 0 W/m 0,0 km/h (0 Bft)
05.04.2013 23:06 3,3 C 2,3 C 83 % 1014,5 hPa 0,0 l/m 0 min 0 min 0,0 UV-I 0 W/m 5,1 km/h (1 Bft)
05.04.2013 23:08 3,3 C 2,3 C 83 % 1014,5 hPa 0,0 l/m 0 min 0 min 0,0 UV-I 0 W/m 0,0 km/h (0 Bft)
05.04.2013 23:10 3,3 C 2,3 C 83 % 1014,5 hPa 0,0 l/m 0 min 0 min 0,0 UV-I 0 W/m 0,0 km/h (0 Bft)
05.04.2013 23:12 3,3 C 2,3 C 83 % 1014,5 hPa 0,0 l/m 0 min 0 min 0,0 UV-I 0 W/m 0,0 km/h (0 Bft)
05.04.2013 23:14 3,3 C 2,3 C 83 % 1014,5 hPa 0,0 l/m 0 min 0 min 0,0 UV-I 0 W/m 2,6 km/h (1 Bft)
05.04.2013 23:16 3,3 C 2,3 C 83 % 1014,5 hPa 0,0 l/m 0 min 0 min 0,0 UV-I 0 W/m 0,0 km/h (0 Bft)
05.04.2013 23:18 3,3 C 2,3 C 83 % 1014,5 hPa 0,0 l/m 0 min 0 min 0,0 UV-I 0 W/m 0,0 km/h (0 Bft)
05.04.2013 23:20 3,3 C 2,3 C 83 % 1014,6 hPa 0,0 l/m 0 min 0 min 0,0 UV-I 0 W/m 0,0 km/h (0 Bft)
05.04.2013 23:22 3,3 C 2,3 C 83 % 1014,6 hPa 0,0 l/m 0 min 0 min 0,0 UV-I 0 W/m 0,0 km/h (0 Bft)
05.04.2013 23:24 3,3 C 2,3 C 83 % 1014,6 hPa 0,0 l/m 0 min 0 min 0,0 UV-I 0 W/m 0,0 km/h (0 Bft)
05.04.2013 23:26 3,3 C 2,3 C 83 % 1014,6 hPa 0,0 l/m 0 min 0 min 0,0 UV-I 0 W/m 0,0 km/h (0 Bft)
05.04.2013 23:28 3,3 C 2,3 C 83 % 1014,6 hPa 0,0 l/m 0 min 0 min 0,0 UV-I 0 W/m 0,0 km/h (0 Bft)
05.04.2013 23:30 3,3 C 2,3 C 83 % 1014,6 hPa 0,0 l/m 0 min 0 min 0,0 UV-I 0 W/m 0,0 km/h (0 Bft)
05.04.2013 23:32 3,3 C 2,3 C 83 % 1014,6 hPa 0,0 l/m 0 min 0 min 0,0 UV-I 0 W/m 0,0 km/h (0 Bft)
05.04.2013 23:34 3,3 C 2,3 C 83 % 1014,6 hPa 0,0 l/m 0 min 0 min 0,0 UV-I 0 W/m 0,0 km/h (0 Bft)
05.04.2013 23:36 3,3 C 2,3 C 83 % 1014,6 hPa 0,0 l/m 0 min 0 min 0,0 UV-I 0 W/m 0,0 km/h (0 Bft)
05.04.2013 23:38 3,3 C 2,3 C 83 % 1014,6 hPa 0,0 l/m 0 min 0 min 0,0 UV-I 0 W/m 0,0 km/h (0 Bft)
05.04.2013 23:40 3,3 C 2,3 C 83 % 1014,6 hPa 0,0 l/m 0 min 0 min 0,0 UV-I 0 W/m 0,0 km/h (0 Bft)
05.04.2013 23:42 3,3 C 2,3 C 83 % 1014,6 hPa 0,0 l/m 0 min 0 min 0,0 UV-I 0 W/m 0,0 km/h (0 Bft)
05.04.2013 23:44 3,2 C 2,3 C 83 % 1014,5 hPa 0,0 l/m 0 min 0 min 0,0 UV-I 0 W/m 0,0 km/h (0 Bft)
05.04.2013 23:46 3,2 C 2,3 C 83 % 1014,5 hPa 0,0 l/m 0 min 0 min 0,0 UV-I 0 W/m 0,0 km/h (0 Bft)
05.04.2013 23:48 3,2 C 2,3 C 83 % 1014,5 hPa 0,0 l/m 0 min 0 min 0,0 UV-I 0 W/m 0,0 km/h (0 Bft)
05.04.2013 23:50 3,2 C 2,3 C 83 % 1014,6 hPa 0,0 l/m 0 min 0 min 0,0 UV-I 0 W/m 0,0 km/h (0 Bft)
05.04.2013 23:52 3,2 C 2,3 C 84 % 1014,6 hPa 0,0 l/m 0 min 0 min 0,0 UV-I 0 W/m 0,0 km/h (0 Bft)
05.04.2013 23:54 3,2 C 2,3 C 84 % 1014,7 hPa 0,0 l/m 0 min 0 min 0,0 UV-I 0 W/m 0,0 km/h (0 Bft)
05.04.2013 23:56 3,2 C 2,3 C 83 % 1014,7 hPa 0,0 l/m 0 min 0 min 0,0 UV-I 0 W/m 0,0 km/h (0 Bft)
05.04.2013 23:58 3,2 C 2,3 C 83 % 1014,7 hPa 0,0 l/m 0 min 0 min 0,0 UV-I 0 W/m 0,0 km/h (0 Bft)
_ Min-Zeit 03:30 01:56 15:06 05:40 - - - - - 00:00
Minimum _ 0,6 C -1,0 C 75 % 1008,8 hPa - - - - - 0,0 km/h (0 Bft)
_ Max-Zeit 16:58 14:12 02:18 23:54 00:00 00:00 00:00 00:00 15:12 08:44
Maximum _ 4,3 C 4,0 C 89 % 1014,7 hPa 0,0 l/m 0 min 0 min 0,0 UV-I 162 W/m 25,7 km/h
O-SO (4 Bft)
Durchschnitt _ 2,8 C 1,9 C 79 % 1010,8 hPa #0,0 l/m #0 min. #0 min. 0,0 UV-I 53 W/m 4,6 km/h (1 Bft)
© 2013 W. Hausmann